<?xml version="1.0" encoding="UTF-8" standalone="no" ?>
<gpx xmlns="http://www.topografix.com/GPX/1/1" xmlns:xsi="http://www.w3.org/2001/XMLSchema-instance" xsi:schemaLocation="http://www.topografix.com/GPX/1/1 http://www.topografix.com/GPX/1/1/gpx.xsd" version="1.1" creator="VisuGPX - https://www.visugpx.com">
  <metadata>
    <name>Station du Mont Dore</name>
    <desc><![CDATA[Pour les moins entrainés possibilité de monter avec le téléphérique.]]></desc>
  </metadata>
  <trk>
    <name><![CDATA[J03-02_2013-07-02 1427]]></name>
    <desc><![CDATA[<h1>OruxMaps</h1><br /><hr align="center" width="480" style="height: 2px; width: 517px"/><h2>Nom: J-03-02_2013-07-02 14:27</h2><br /><p>Temps de départ: 07/02/2013 14:27</p><p>Temps d'arrivée: 07/02/2013 17:32</p><p>Distance: 24,8 km (03:04)</p><p>Temps déplacement: 01:55</p><p>Vitesse moyenne: 8,1 km/h</p><p>Vitesse moyenne: 12,9 km/h</p><p>Vitess Max.: 74,9 km/h</p><p>Altitude minimale: 812 m</p><p>Altitude maximale: 1880 m</p><p>Vitesse d'élévation: 969,7 m/h</p><p>Vitesse de descente: -581 m/h</p><p>Gain Altitude: 741 m</p><p>Perte Altitude: -1124 m</p><p>Temps d'élévation: 00:45</p><p>Temps de descente: 01:56</p><hr align="center" width="480" style="height: 2px; width: 517px"/>]]></desc>
    <trkseg>
      <trkpt lat="45.54272" lon="2.81802">
        <ele>1278.8</ele>
        <time>2013-07-02T12:27:27Z</time>
      </trkpt>
      <trkpt lat="45.54268" lon="2.81799">
        <ele>1303.1</ele>
        <time>2013-07-02T12:27:36Z</time>
      </trkpt>
      <trkpt lat="45.54264" lon="2.81796">
        <ele>1306.9</ele>
        <time>2013-07-02T12:27:38Z</time>
      </trkpt>
      <trkpt lat="45.5426" lon="2.81792">
        <ele>1309.1</ele>
        <time>2013-07-02T12:27:40Z</time>
      </trkpt>
      <trkpt lat="45.54256" lon="2.81787">
        <ele>1310.8</ele>
        <time>2013-07-02T12:27:43Z</time>
      </trkpt>
      <trkpt lat="45.54252" lon="2.81783">
        <ele>1312.2</ele>
        <time>2013-07-02T12:27:47Z</time>
      </trkpt>
      <trkpt lat="45.5425" lon="2.81777">
        <ele>1313.9</ele>
        <time>2013-07-02T12:27:53Z</time>
      </trkpt>
      <trkpt lat="45.54251" lon="2.8177">
        <ele>1314</ele>
        <time>2013-07-02T12:27:58Z</time>
      </trkpt>
      <trkpt lat="45.54248" lon="2.81764">
        <ele>1314.3</ele>
        <time>2013-07-02T12:28:07Z</time>
      </trkpt>
      <trkpt lat="45.54245" lon="2.81759">
        <ele>1314.3</ele>
        <time>2013-07-02T12:28:14Z</time>
      </trkpt>
      <trkpt lat="45.54242" lon="2.81752">
        <ele>1314.4</ele>
        <time>2013-07-02T12:28:20Z</time>
      </trkpt>
      <trkpt lat="45.5424" lon="2.81746">
        <ele>1314.8</ele>
        <time>2013-07-02T12:28:24Z</time>
      </trkpt>
      <trkpt lat="45.54236" lon="2.81741">
        <ele>1315.7</ele>
        <time>2013-07-02T12:28:34Z</time>
      </trkpt>
      <trkpt lat="45.54233" lon="2.81737">
        <ele>1316.1</ele>
        <time>2013-07-02T12:28:45Z</time>
      </trkpt>
      <trkpt lat="45.54231" lon="2.81731">
        <ele>1316.5</ele>
        <time>2013-07-02T12:28:52Z</time>
      </trkpt>
      <trkpt lat="45.54228" lon="2.81726">
        <ele>1316.6</ele>
        <time>2013-07-02T12:28:56Z</time>
      </trkpt>
      <trkpt lat="45.54224" lon="2.81722">
        <ele>1317.1</ele>
        <time>2013-07-02T12:29:05Z</time>
      </trkpt>
      <trkpt lat="45.54221" lon="2.81716">
        <ele>1317.5</ele>
        <time>2013-07-02T12:29:11Z</time>
      </trkpt>
      <trkpt lat="45.54219" lon="2.81709">
        <ele>1317.9</ele>
        <time>2013-07-02T12:29:16Z</time>
      </trkpt>
      <trkpt lat="45.54215" lon="2.81704">
        <ele>1318.1</ele>
        <time>2013-07-02T12:29:22Z</time>
      </trkpt>
      <trkpt lat="45.54212" lon="2.81698">
        <ele>1318.2</ele>
        <time>2013-07-02T12:29:29Z</time>
      </trkpt>
      <trkpt lat="45.54209" lon="2.81693">
        <ele>1318.3</ele>
        <time>2013-07-02T12:29:35Z</time>
      </trkpt>
      <trkpt lat="45.54206" lon="2.81686">
        <ele>1318.6</ele>
        <time>2013-07-02T12:29:41Z</time>
      </trkpt>
      <trkpt lat="45.54201" lon="2.81684">
        <ele>1319.1</ele>
        <time>2013-07-02T12:29:47Z</time>
      </trkpt>
      <trkpt lat="45.54196" lon="2.81679">
        <ele>1319.9</ele>
        <time>2013-07-02T12:29:53Z</time>
      </trkpt>
      <trkpt lat="45.54192" lon="2.81675">
        <ele>1320.7</ele>
        <time>2013-07-02T12:29:59Z</time>
      </trkpt>
      <trkpt lat="45.54188" lon="2.81672">
        <ele>1321.4</ele>
        <time>2013-07-02T12:30:06Z</time>
      </trkpt>
      <trkpt lat="45.54184" lon="2.81669">
        <ele>1321.4</ele>
        <time>2013-07-02T12:30:10Z</time>
      </trkpt>
      <trkpt lat="45.5418" lon="2.81665">
        <ele>1321.4</ele>
        <time>2013-07-02T12:30:15Z</time>
      </trkpt>
      <trkpt lat="45.54175" lon="2.81663">
        <ele>1321.8</ele>
        <time>2013-07-02T12:30:23Z</time>
      </trkpt>
      <trkpt lat="45.54171" lon="2.81664">
        <ele>1322.3</ele>
        <time>2013-07-02T12:30:29Z</time>
      </trkpt>
      <trkpt lat="45.54166" lon="2.81661">
        <ele>1323.1</ele>
        <time>2013-07-02T12:30:46Z</time>
      </trkpt>
      <trkpt lat="45.54163" lon="2.81657">
        <ele>1323.1</ele>
        <time>2013-07-02T12:31:11Z</time>
      </trkpt>
      <trkpt lat="45.54158" lon="2.81655">
        <ele>1324.4</ele>
        <time>2013-07-02T12:31:29Z</time>
      </trkpt>
      <trkpt lat="45.54157" lon="2.81649">
        <ele>1324.7</ele>
        <time>2013-07-02T12:31:38Z</time>
      </trkpt>
      <trkpt lat="45.54157" lon="2.81641">
        <ele>1325.2</ele>
        <time>2013-07-02T12:31:44Z</time>
      </trkpt>
      <trkpt lat="45.54159" lon="2.81635">
        <ele>1325.7</ele>
        <time>2013-07-02T12:31:52Z</time>
      </trkpt>
      <trkpt lat="45.54162" lon="2.81628">
        <ele>1326.1</ele>
        <time>2013-07-02T12:31:57Z</time>
      </trkpt>
      <trkpt lat="45.54165" lon="2.81623">
        <ele>1326.3</ele>
        <time>2013-07-02T12:32:01Z</time>
      </trkpt>
      <trkpt lat="45.54167" lon="2.81617">
        <ele>1326.6</ele>
        <time>2013-07-02T12:32:06Z</time>
      </trkpt>
      <trkpt lat="45.54169" lon="2.81611">
        <ele>1326.6</ele>
        <time>2013-07-02T12:32:10Z</time>
      </trkpt>
      <trkpt lat="45.54172" lon="2.81605">
        <ele>1326.6</ele>
        <time>2013-07-02T12:32:16Z</time>
      </trkpt>
      <trkpt lat="45.54174" lon="2.81599">
        <ele>1326.5</ele>
        <time>2013-07-02T12:32:21Z</time>
      </trkpt>
      <trkpt lat="45.54176" lon="2.81592">
        <ele>1326.4</ele>
        <time>2013-07-02T12:32:24Z</time>
      </trkpt>
      <trkpt lat="45.54176" lon="2.81585">
        <ele>1326.5</ele>
        <time>2013-07-02T12:32:29Z</time>
      </trkpt>
      <trkpt lat="45.54176" lon="2.81578">
        <ele>1326.6</ele>
        <time>2013-07-02T12:32:33Z</time>
      </trkpt>
      <trkpt lat="45.54174" lon="2.81572">
        <ele>1326</ele>
        <time>2013-07-02T12:32:41Z</time>
      </trkpt>
      <trkpt lat="45.54177" lon="2.81566">
        <ele>1324.5</ele>
        <time>2013-07-02T12:32:52Z</time>
      </trkpt>
      <trkpt lat="45.54178" lon="2.81559">
        <ele>1324.1</ele>
        <time>2013-07-02T12:32:57Z</time>
      </trkpt>
      <trkpt lat="45.54178" lon="2.81552">
        <ele>1324.1</ele>
        <time>2013-07-02T12:33:01Z</time>
      </trkpt>
      <trkpt lat="45.54178" lon="2.81545">
        <ele>1324.3</ele>
        <time>2013-07-02T12:33:07Z</time>
      </trkpt>
      <trkpt lat="45.54177" lon="2.81539">
        <ele>1324.4</ele>
        <time>2013-07-02T12:33:12Z</time>
      </trkpt>
      <trkpt lat="45.54177" lon="2.81532">
        <ele>1324.8</ele>
        <time>2013-07-02T12:33:17Z</time>
      </trkpt>
      <trkpt lat="45.54176" lon="2.81525">
        <ele>1325.3</ele>
        <time>2013-07-02T12:33:21Z</time>
      </trkpt>
      <trkpt lat="45.54174" lon="2.81518">
        <ele>1325.8</ele>
        <time>2013-07-02T12:33:25Z</time>
      </trkpt>
      <trkpt lat="45.5417" lon="2.81512">
        <ele>1326.7</ele>
        <time>2013-07-02T12:33:31Z</time>
      </trkpt>
      <trkpt lat="45.54168" lon="2.81505">
        <ele>1327.6</ele>
        <time>2013-07-02T12:33:37Z</time>
      </trkpt>
      <trkpt lat="45.54165" lon="2.81499">
        <ele>1328.2</ele>
        <time>2013-07-02T12:33:42Z</time>
      </trkpt>
      <trkpt lat="45.54161" lon="2.81495">
        <ele>1329.6</ele>
        <time>2013-07-02T12:34:12Z</time>
      </trkpt>
      <trkpt lat="45.54159" lon="2.81501">
        <ele>1329.9</ele>
        <time>2013-07-02T12:34:27Z</time>
      </trkpt>
      <trkpt lat="45.54158" lon="2.81493">
        <ele>1332.3</ele>
        <time>2013-07-02T12:36:06Z</time>
      </trkpt>
      <trkpt lat="45.54158" lon="2.81486">
        <ele>1332.3</ele>
        <time>2013-07-02T12:36:11Z</time>
      </trkpt>
      <trkpt lat="45.54157" lon="2.8148">
        <ele>1332.7</ele>
        <time>2013-07-02T12:36:15Z</time>
      </trkpt>
      <trkpt lat="45.54155" lon="2.81473">
        <ele>1333.1</ele>
        <time>2013-07-02T12:36:20Z</time>
      </trkpt>
      <trkpt lat="45.54155" lon="2.81466">
        <ele>1333.1</ele>
        <time>2013-07-02T12:36:28Z</time>
      </trkpt>
      <trkpt lat="45.54155" lon="2.81459">
        <ele>1333</ele>
        <time>2013-07-02T12:36:33Z</time>
      </trkpt>
      <trkpt lat="45.54156" lon="2.81452">
        <ele>1333.2</ele>
        <time>2013-07-02T12:36:46Z</time>
      </trkpt>
      <trkpt lat="45.54159" lon="2.81447">
        <ele>1333.7</ele>
        <time>2013-07-02T12:37:14Z</time>
      </trkpt>
      <trkpt lat="45.54162" lon="2.81442">
        <ele>1333.9</ele>
        <time>2013-07-02T12:37:20Z</time>
      </trkpt>
      <trkpt lat="45.54165" lon="2.81437">
        <ele>1334.1</ele>
        <time>2013-07-02T12:37:26Z</time>
      </trkpt>
      <trkpt lat="45.54168" lon="2.81432">
        <ele>1335.2</ele>
        <time>2013-07-02T12:37:40Z</time>
      </trkpt>
      <trkpt lat="45.54089" lon="2.81419">
        <ele>1336.6</ele>
        <time>2013-07-02T12:43:13Z</time>
      </trkpt>
      <trkpt lat="45.54084" lon="2.81418">
        <ele>1337.9</ele>
        <time>2013-07-02T12:43:14Z</time>
      </trkpt>
      <trkpt lat="45.5408" lon="2.81416">
        <ele>1339.6</ele>
        <time>2013-07-02T12:43:15Z</time>
      </trkpt>
      <trkpt lat="45.54075" lon="2.81415">
        <ele>1341.3</ele>
        <time>2013-07-02T12:43:16Z</time>
      </trkpt>
      <trkpt lat="45.54071" lon="2.81413">
        <ele>1342.9</ele>
        <time>2013-07-02T12:43:17Z</time>
      </trkpt>
      <trkpt lat="45.54063" lon="2.8141">
        <ele>1345.9</ele>
        <time>2013-07-02T12:43:19Z</time>
      </trkpt>
      <trkpt lat="45.54055" lon="2.81407">
        <ele>1348.1</ele>
        <time>2013-07-02T12:43:21Z</time>
      </trkpt>
      <trkpt lat="45.54045" lon="2.81403">
        <ele>1350.2</ele>
        <time>2013-07-02T12:43:23Z</time>
      </trkpt>
      <trkpt lat="45.54038" lon="2.814">
        <ele>1351.2</ele>
        <time>2013-07-02T12:43:24Z</time>
      </trkpt>
      <trkpt lat="45.54016" lon="2.81391">
        <ele>1355.5</ele>
        <time>2013-07-02T12:43:27Z</time>
      </trkpt>
      <trkpt lat="45.54008" lon="2.81386">
        <ele>1355.5</ele>
        <time>2013-07-02T12:43:28Z</time>
      </trkpt>
      <trkpt lat="45.54001" lon="2.81382">
        <ele>1355.5</ele>
        <time>2013-07-02T12:43:29Z</time>
      </trkpt>
      <trkpt lat="45.53995" lon="2.8138">
        <ele>1355.6</ele>
        <time>2013-07-02T12:43:30Z</time>
      </trkpt>
      <trkpt lat="45.53988" lon="2.81379">
        <ele>1355.7</ele>
        <time>2013-07-02T12:43:31Z</time>
      </trkpt>
      <trkpt lat="45.53979" lon="2.8138">
        <ele>1355.9</ele>
        <time>2013-07-02T12:43:32Z</time>
      </trkpt>
      <trkpt lat="45.5397" lon="2.81379">
        <ele>1356.4</ele>
        <time>2013-07-02T12:43:33Z</time>
      </trkpt>
      <trkpt lat="45.53961" lon="2.81378">
        <ele>1357.1</ele>
        <time>2013-07-02T12:43:34Z</time>
      </trkpt>
      <trkpt lat="45.53953" lon="2.81377">
        <ele>1357.9</ele>
        <time>2013-07-02T12:43:35Z</time>
      </trkpt>
      <trkpt lat="45.53945" lon="2.81376">
        <ele>1358.7</ele>
        <time>2013-07-02T12:43:36Z</time>
      </trkpt>
      <trkpt lat="45.53938" lon="2.81375">
        <ele>1359.5</ele>
        <time>2013-07-02T12:43:37Z</time>
      </trkpt>
      <trkpt lat="45.53931" lon="2.81373">
        <ele>1360.4</ele>
        <time>2013-07-02T12:43:38Z</time>
      </trkpt>
      <trkpt lat="45.53924" lon="2.81371">
        <ele>1361.3</ele>
        <time>2013-07-02T12:43:39Z</time>
      </trkpt>
      <trkpt lat="45.53919" lon="2.8137">
        <ele>1362.3</ele>
        <time>2013-07-02T12:43:40Z</time>
      </trkpt>
      <trkpt lat="45.53914" lon="2.81369">
        <ele>1363.3</ele>
        <time>2013-07-02T12:43:41Z</time>
      </trkpt>
      <trkpt lat="45.53909" lon="2.81368">
        <ele>1364.5</ele>
        <time>2013-07-02T12:43:42Z</time>
      </trkpt>
      <trkpt lat="45.53904" lon="2.81367">
        <ele>1365.6</ele>
        <time>2013-07-02T12:43:43Z</time>
      </trkpt>
      <trkpt lat="45.539" lon="2.81365">
        <ele>1366.8</ele>
        <time>2013-07-02T12:43:44Z</time>
      </trkpt>
      <trkpt lat="45.53895" lon="2.81362">
        <ele>1367.9</ele>
        <time>2013-07-02T12:43:45Z</time>
      </trkpt>
      <trkpt lat="45.53889" lon="2.8136">
        <ele>1369.1</ele>
        <time>2013-07-02T12:43:46Z</time>
      </trkpt>
      <trkpt lat="45.53884" lon="2.81358">
        <ele>1370.3</ele>
        <time>2013-07-02T12:43:47Z</time>
      </trkpt>
      <trkpt lat="45.53878" lon="2.81356">
        <ele>1371.6</ele>
        <time>2013-07-02T12:43:48Z</time>
      </trkpt>
      <trkpt lat="45.53872" lon="2.81354">
        <ele>1373</ele>
        <time>2013-07-02T12:43:49Z</time>
      </trkpt>
      <trkpt lat="45.53866" lon="2.81352">
        <ele>1374.8</ele>
        <time>2013-07-02T12:43:50Z</time>
      </trkpt>
      <trkpt lat="45.5386" lon="2.8135">
        <ele>1376.9</ele>
        <time>2013-07-02T12:43:51Z</time>
      </trkpt>
      <trkpt lat="45.53841" lon="2.81346">
        <ele>1389.6</ele>
        <time>2013-07-02T12:43:54Z</time>
      </trkpt>
      <trkpt lat="45.53834" lon="2.81343">
        <ele>1390.5</ele>
        <time>2013-07-02T12:43:55Z</time>
      </trkpt>
      <trkpt lat="45.53828" lon="2.8134">
        <ele>1391.5</ele>
        <time>2013-07-02T12:43:56Z</time>
      </trkpt>
      <trkpt lat="45.53713" lon="2.81278">
        <ele>1403.7</ele>
        <time>2013-07-02T12:44:10Z</time>
      </trkpt>
      <trkpt lat="45.53262" lon="2.81329">
        <ele>1600.6</ele>
        <time>2013-07-02T12:47:05Z</time>
      </trkpt>
      <trkpt lat="45.53252" lon="2.81336">
        <ele>1621.5</ele>
        <time>2013-07-02T12:47:24Z</time>
      </trkpt>
      <trkpt lat="45.53244" lon="2.8134">
        <ele>1642.6</ele>
        <time>2013-07-02T12:47:33Z</time>
      </trkpt>
      <trkpt lat="45.53235" lon="2.81333">
        <ele>1662</ele>
        <time>2013-07-02T12:47:51Z</time>
      </trkpt>
      <trkpt lat="45.5323" lon="2.81329">
        <ele>1667.2</ele>
        <time>2013-07-02T12:47:54Z</time>
      </trkpt>
      <trkpt lat="45.53221" lon="2.81316">
        <ele>1699.2</ele>
        <time>2013-07-02T12:48:33Z</time>
      </trkpt>
      <trkpt lat="45.5322" lon="2.81309">
        <ele>1710.3</ele>
        <time>2013-07-02T12:48:41Z</time>
      </trkpt>
      <trkpt lat="45.5322" lon="2.81302">
        <ele>1715</ele>
        <time>2013-07-02T12:48:45Z</time>
      </trkpt>
      <trkpt lat="45.53212" lon="2.8129">
        <ele>1727.6</ele>
        <time>2013-07-02T12:48:58Z</time>
      </trkpt>
      <trkpt lat="45.53205" lon="2.81281">
        <ele>1739.4</ele>
        <time>2013-07-02T12:49:13Z</time>
      </trkpt>
      <trkpt lat="45.53198" lon="2.81274">
        <ele>1745.7</ele>
        <time>2013-07-02T12:49:23Z</time>
      </trkpt>
      <trkpt lat="45.53193" lon="2.81268">
        <ele>1750.7</ele>
        <time>2013-07-02T12:49:33Z</time>
      </trkpt>
      <trkpt lat="45.53187" lon="2.81259">
        <ele>1755.1</ele>
        <time>2013-07-02T12:49:48Z</time>
      </trkpt>
      <trkpt lat="45.53182" lon="2.81254">
        <ele>1756.5</ele>
        <time>2013-07-02T12:49:55Z</time>
      </trkpt>
      <trkpt lat="45.53175" lon="2.81244">
        <ele>1759.2</ele>
        <time>2013-07-02T12:50:08Z</time>
      </trkpt>
      <trkpt lat="45.53169" lon="2.8124">
        <ele>1761.1</ele>
        <time>2013-07-02T12:50:20Z</time>
      </trkpt>
      <trkpt lat="45.53165" lon="2.81236">
        <ele>1762.2</ele>
        <time>2013-07-02T12:50:26Z</time>
      </trkpt>
      <trkpt lat="45.53161" lon="2.81233">
        <ele>1763.3</ele>
        <time>2013-07-02T12:50:32Z</time>
      </trkpt>
      <trkpt lat="45.53157" lon="2.81229">
        <ele>1764.2</ele>
        <time>2013-07-02T12:50:39Z</time>
      </trkpt>
      <trkpt lat="45.53153" lon="2.81225">
        <ele>1764.6</ele>
        <time>2013-07-02T12:50:47Z</time>
      </trkpt>
      <trkpt lat="45.53151" lon="2.81219">
        <ele>1765.8</ele>
        <time>2013-07-02T12:50:57Z</time>
      </trkpt>
      <trkpt lat="45.53149" lon="2.81212">
        <ele>1767.7</ele>
        <time>2013-07-02T12:51:07Z</time>
      </trkpt>
      <trkpt lat="45.53145" lon="2.81208">
        <ele>1769.8</ele>
        <time>2013-07-02T12:51:18Z</time>
      </trkpt>
      <trkpt lat="45.53141" lon="2.81204">
        <ele>1771.8</ele>
        <time>2013-07-02T12:51:29Z</time>
      </trkpt>
      <trkpt lat="45.53139" lon="2.81198">
        <ele>1773.9</ele>
        <time>2013-07-02T12:51:43Z</time>
      </trkpt>
      <trkpt lat="45.53135" lon="2.81195">
        <ele>1776.2</ele>
        <time>2013-07-02T12:51:55Z</time>
      </trkpt>
      <trkpt lat="45.53131" lon="2.81193">
        <ele>1779.8</ele>
        <time>2013-07-02T12:52:20Z</time>
      </trkpt>
      <trkpt lat="45.53126" lon="2.81194">
        <ele>1780.8</ele>
        <time>2013-07-02T12:52:26Z</time>
      </trkpt>
      <trkpt lat="45.53122" lon="2.81194">
        <ele>1782.5</ele>
        <time>2013-07-02T12:52:34Z</time>
      </trkpt>
      <trkpt lat="45.53117" lon="2.81196">
        <ele>1784.6</ele>
        <time>2013-07-02T12:52:44Z</time>
      </trkpt>
      <trkpt lat="45.53112" lon="2.81197">
        <ele>1785.3</ele>
        <time>2013-07-02T12:52:50Z</time>
      </trkpt>
      <trkpt lat="45.53108" lon="2.81196">
        <ele>1786.9</ele>
        <time>2013-07-02T12:53:02Z</time>
      </trkpt>
      <trkpt lat="45.53103" lon="2.81196">
        <ele>1788.4</ele>
        <time>2013-07-02T12:53:11Z</time>
      </trkpt>
      <trkpt lat="45.53098" lon="2.81199">
        <ele>1789.9</ele>
        <time>2013-07-02T12:53:18Z</time>
      </trkpt>
      <trkpt lat="45.53093" lon="2.81197">
        <ele>1791.2</ele>
        <time>2013-07-02T12:53:27Z</time>
      </trkpt>
      <trkpt lat="45.53088" lon="2.81197">
        <ele>1791.7</ele>
        <time>2013-07-02T12:53:34Z</time>
      </trkpt>
      <trkpt lat="45.53083" lon="2.81195">
        <ele>1792.4</ele>
        <time>2013-07-02T12:53:40Z</time>
      </trkpt>
      <trkpt lat="45.53079" lon="2.81195">
        <ele>1793.3</ele>
        <time>2013-07-02T12:53:47Z</time>
      </trkpt>
      <trkpt lat="45.53074" lon="2.81196">
        <ele>1794.6</ele>
        <time>2013-07-02T12:53:56Z</time>
      </trkpt>
      <trkpt lat="45.53069" lon="2.81195">
        <ele>1796.2</ele>
        <time>2013-07-02T12:54:09Z</time>
      </trkpt>
      <trkpt lat="45.53064" lon="2.81195">
        <ele>1797.4</ele>
        <time>2013-07-02T12:54:17Z</time>
      </trkpt>
      <trkpt lat="45.53059" lon="2.81193">
        <ele>1797.9</ele>
        <time>2013-07-02T12:54:23Z</time>
      </trkpt>
      <trkpt lat="45.53055" lon="2.81191">
        <ele>1799</ele>
        <time>2013-07-02T12:54:34Z</time>
      </trkpt>
      <trkpt lat="45.5305" lon="2.81188">
        <ele>1799.1</ele>
        <time>2013-07-02T12:54:40Z</time>
      </trkpt>
      <trkpt lat="45.53045" lon="2.81187">
        <ele>1799.1</ele>
        <time>2013-07-02T12:54:46Z</time>
      </trkpt>
      <trkpt lat="45.5304" lon="2.81187">
        <ele>1799.4</ele>
        <time>2013-07-02T12:54:51Z</time>
      </trkpt>
      <trkpt lat="45.53035" lon="2.81187">
        <ele>1800</ele>
        <time>2013-07-02T12:54:58Z</time>
      </trkpt>
      <trkpt lat="45.5303" lon="2.81186">
        <ele>1800.6</ele>
        <time>2013-07-02T12:55:04Z</time>
      </trkpt>
      <trkpt lat="45.53034" lon="2.81182">
        <ele>1803.8</ele>
        <time>2013-07-02T12:56:10Z</time>
      </trkpt>
      <trkpt lat="45.5303" lon="2.81186">
        <ele>1805.6</ele>
        <time>2013-07-02T12:56:36Z</time>
      </trkpt>
      <trkpt lat="45.53025" lon="2.81185">
        <ele>1806.1</ele>
        <time>2013-07-02T12:56:42Z</time>
      </trkpt>
      <trkpt lat="45.5302" lon="2.81182">
        <ele>1806.4</ele>
        <time>2013-07-02T12:56:47Z</time>
      </trkpt>
      <trkpt lat="45.53015" lon="2.8118">
        <ele>1806.8</ele>
        <time>2013-07-02T12:56:52Z</time>
      </trkpt>
      <trkpt lat="45.53011" lon="2.81179">
        <ele>1807</ele>
        <time>2013-07-02T12:56:57Z</time>
      </trkpt>
      <trkpt lat="45.53006" lon="2.81176">
        <ele>1806.9</ele>
        <time>2013-07-02T12:57:02Z</time>
      </trkpt>
      <trkpt lat="45.53002" lon="2.81174">
        <ele>1807.3</ele>
        <time>2013-07-02T12:57:09Z</time>
      </trkpt>
      <trkpt lat="45.52997" lon="2.81176">
        <ele>1807.7</ele>
        <time>2013-07-02T12:57:21Z</time>
      </trkpt>
      <trkpt lat="45.53" lon="2.8117">
        <ele>1808.6</ele>
        <time>2013-07-02T12:57:41Z</time>
      </trkpt>
      <trkpt lat="45.53001" lon="2.81163">
        <ele>1808.6</ele>
        <time>2013-07-02T12:57:46Z</time>
      </trkpt>
      <trkpt lat="45.52998" lon="2.81168">
        <ele>1810.6</ele>
        <time>2013-07-02T12:59:05Z</time>
      </trkpt>
      <trkpt lat="45.52995" lon="2.81174">
        <ele>1810.5</ele>
        <time>2013-07-02T12:59:16Z</time>
      </trkpt>
      <trkpt lat="45.52992" lon="2.81179">
        <ele>1810.6</ele>
        <time>2013-07-02T12:59:44Z</time>
      </trkpt>
      <trkpt lat="45.52988" lon="2.81183">
        <ele>1810.3</ele>
        <time>2013-07-02T12:59:49Z</time>
      </trkpt>
      <trkpt lat="45.52984" lon="2.81187">
        <ele>1809.9</ele>
        <time>2013-07-02T12:59:55Z</time>
      </trkpt>
      <trkpt lat="45.5298" lon="2.81191">
        <ele>1809.5</ele>
        <time>2013-07-02T13:00:03Z</time>
      </trkpt>
      <trkpt lat="45.52976" lon="2.81197">
        <ele>1809.4</ele>
        <time>2013-07-02T13:00:08Z</time>
      </trkpt>
      <trkpt lat="45.52973" lon="2.81202">
        <ele>1809.6</ele>
        <time>2013-07-02T13:00:13Z</time>
      </trkpt>
      <trkpt lat="45.52969" lon="2.81208">
        <ele>1809.7</ele>
        <time>2013-07-02T13:00:20Z</time>
      </trkpt>
      <trkpt lat="45.52967" lon="2.81214">
        <ele>1809.7</ele>
        <time>2013-07-02T13:00:25Z</time>
      </trkpt>
      <trkpt lat="45.52964" lon="2.8122">
        <ele>1809.7</ele>
        <time>2013-07-02T13:00:30Z</time>
      </trkpt>
      <trkpt lat="45.52963" lon="2.81226">
        <ele>1809.7</ele>
        <time>2013-07-02T13:00:35Z</time>
      </trkpt>
      <trkpt lat="45.5296" lon="2.81231">
        <ele>1809.8</ele>
        <time>2013-07-02T13:00:40Z</time>
      </trkpt>
      <trkpt lat="45.52955" lon="2.81235">
        <ele>1810.1</ele>
        <time>2013-07-02T13:00:46Z</time>
      </trkpt>
      <trkpt lat="45.52951" lon="2.8124">
        <ele>1810.3</ele>
        <time>2013-07-02T13:00:50Z</time>
      </trkpt>
      <trkpt lat="45.52947" lon="2.81245">
        <ele>1810.7</ele>
        <time>2013-07-02T13:00:56Z</time>
      </trkpt>
      <trkpt lat="45.52943" lon="2.81247">
        <ele>1811.6</ele>
        <time>2013-07-02T13:01:06Z</time>
      </trkpt>
      <trkpt lat="45.52944" lon="2.81254">
        <ele>1812.7</ele>
        <time>2013-07-02T13:01:24Z</time>
      </trkpt>
      <trkpt lat="45.52943" lon="2.8126">
        <ele>1813.6</ele>
        <time>2013-07-02T13:01:31Z</time>
      </trkpt>
      <trkpt lat="45.52942" lon="2.81267">
        <ele>1814.7</ele>
        <time>2013-07-02T13:01:42Z</time>
      </trkpt>
      <trkpt lat="45.5294" lon="2.81273">
        <ele>1815.7</ele>
        <time>2013-07-02T13:01:50Z</time>
      </trkpt>
      <trkpt lat="45.52938" lon="2.81279">
        <ele>1817.1</ele>
        <time>2013-07-02T13:01:58Z</time>
      </trkpt>
      <trkpt lat="45.52933" lon="2.8128">
        <ele>1818.7</ele>
        <time>2013-07-02T13:02:08Z</time>
      </trkpt>
      <trkpt lat="45.5293" lon="2.81284">
        <ele>1820.2</ele>
        <time>2013-07-02T13:02:19Z</time>
      </trkpt>
      <trkpt lat="45.52926" lon="2.81288">
        <ele>1821.8</ele>
        <time>2013-07-02T13:02:35Z</time>
      </trkpt>
      <trkpt lat="45.52924" lon="2.81294">
        <ele>1824.4</ele>
        <time>2013-07-02T13:02:48Z</time>
      </trkpt>
      <trkpt lat="45.52921" lon="2.81299">
        <ele>1827.3</ele>
        <time>2013-07-02T13:03:03Z</time>
      </trkpt>
      <trkpt lat="45.52916" lon="2.81297">
        <ele>1829.3</ele>
        <time>2013-07-02T13:03:26Z</time>
      </trkpt>
      <trkpt lat="45.52912" lon="2.813">
        <ele>1833.6</ele>
        <time>2013-07-02T13:03:58Z</time>
      </trkpt>
      <trkpt lat="45.52908" lon="2.813">
        <ele>1834.6</ele>
        <time>2013-07-02T13:04:06Z</time>
      </trkpt>
      <trkpt lat="45.52905" lon="2.81306">
        <ele>1838.1</ele>
        <time>2013-07-02T13:04:29Z</time>
      </trkpt>
      <trkpt lat="45.52901" lon="2.8131">
        <ele>1838.5</ele>
        <time>2013-07-02T13:04:40Z</time>
      </trkpt>
      <trkpt lat="45.52896" lon="2.8131">
        <ele>1840.2</ele>
        <time>2013-07-02T13:04:53Z</time>
      </trkpt>
      <trkpt lat="45.52892" lon="2.81313">
        <ele>1842.4</ele>
        <time>2013-07-02T13:05:06Z</time>
      </trkpt>
      <trkpt lat="45.52888" lon="2.81317">
        <ele>1844</ele>
        <time>2013-07-02T13:05:18Z</time>
      </trkpt>
      <trkpt lat="45.52884" lon="2.8132">
        <ele>1845.7</ele>
        <time>2013-07-02T13:05:31Z</time>
      </trkpt>
      <trkpt lat="45.5288" lon="2.81325">
        <ele>1846.7</ele>
        <time>2013-07-02T13:05:40Z</time>
      </trkpt>
      <trkpt lat="45.52877" lon="2.8133">
        <ele>1847.7</ele>
        <time>2013-07-02T13:05:49Z</time>
      </trkpt>
      <trkpt lat="45.52873" lon="2.81335">
        <ele>1848.8</ele>
        <time>2013-07-02T13:05:58Z</time>
      </trkpt>
      <trkpt lat="45.5287" lon="2.81341">
        <ele>1849.8</ele>
        <time>2013-07-02T13:06:04Z</time>
      </trkpt>
      <trkpt lat="45.52865" lon="2.81344">
        <ele>1851.1</ele>
        <time>2013-07-02T13:06:12Z</time>
      </trkpt>
      <trkpt lat="45.52863" lon="2.81349">
        <ele>1852.2</ele>
        <time>2013-07-02T13:06:20Z</time>
      </trkpt>
      <trkpt lat="45.5286" lon="2.81355">
        <ele>1853.3</ele>
        <time>2013-07-02T13:06:27Z</time>
      </trkpt>
      <trkpt lat="45.52858" lon="2.8136">
        <ele>1854.1</ele>
        <time>2013-07-02T13:06:33Z</time>
      </trkpt>
      <trkpt lat="45.52855" lon="2.81366">
        <ele>1855.2</ele>
        <time>2013-07-02T13:06:41Z</time>
      </trkpt>
      <trkpt lat="45.52851" lon="2.81369">
        <ele>1856</ele>
        <time>2013-07-02T13:06:49Z</time>
      </trkpt>
      <trkpt lat="45.52847" lon="2.81372">
        <ele>1857</ele>
        <time>2013-07-02T13:06:57Z</time>
      </trkpt>
      <trkpt lat="45.52843" lon="2.81376">
        <ele>1858.4</ele>
        <time>2013-07-02T13:07:07Z</time>
      </trkpt>
      <trkpt lat="45.52839" lon="2.8138">
        <ele>1859.8</ele>
        <time>2013-07-02T13:07:16Z</time>
      </trkpt>
      <trkpt lat="45.52835" lon="2.81382">
        <ele>1861.8</ele>
        <time>2013-07-02T13:07:27Z</time>
      </trkpt>
      <trkpt lat="45.52833" lon="2.81388">
        <ele>1863.6</ele>
        <time>2013-07-02T13:07:34Z</time>
      </trkpt>
      <trkpt lat="45.52828" lon="2.81389">
        <ele>1865.3</ele>
        <time>2013-07-02T13:07:42Z</time>
      </trkpt>
      <trkpt lat="45.52823" lon="2.81391">
        <ele>1866.1</ele>
        <time>2013-07-02T13:07:48Z</time>
      </trkpt>
      <trkpt lat="45.52819" lon="2.81394">
        <ele>1866.5</ele>
        <time>2013-07-02T13:07:53Z</time>
      </trkpt>
      <trkpt lat="45.52821" lon="2.814">
        <ele>1868.1</ele>
        <time>2013-07-02T13:08:16Z</time>
      </trkpt>
      <trkpt lat="45.52825" lon="2.81402">
        <ele>1868.8</ele>
        <time>2013-07-02T13:08:36Z</time>
      </trkpt>
      <trkpt lat="45.5282" lon="2.81403">
        <ele>1875.1</ele>
        <time>2013-07-02T13:10:47Z</time>
      </trkpt>
      <trkpt lat="45.52824" lon="2.814">
        <ele>1877.3</ele>
        <time>2013-07-02T13:11:44Z</time>
      </trkpt>
      <trkpt lat="45.52821" lon="2.81394">
        <ele>1877.7</ele>
        <time>2013-07-02T13:13:17Z</time>
      </trkpt>
      <trkpt lat="45.52824" lon="2.814">
        <ele>1879.2</ele>
        <time>2013-07-02T13:13:46Z</time>
      </trkpt>
      <trkpt lat="45.5282" lon="2.81397">
        <ele>1880.2</ele>
        <time>2013-07-02T13:14:16Z</time>
      </trkpt>
      <trkpt lat="45.52822" lon="2.8139">
        <ele>1880.2</ele>
        <time>2013-07-02T13:14:41Z</time>
      </trkpt>
      <trkpt lat="45.52823" lon="2.81384">
        <ele>1877.2</ele>
        <time>2013-07-02T13:15:09Z</time>
      </trkpt>
      <trkpt lat="45.52828" lon="2.81382">
        <ele>1876.3</ele>
        <time>2013-07-02T13:15:15Z</time>
      </trkpt>
      <trkpt lat="45.52832" lon="2.81381">
        <ele>1875.7</ele>
        <time>2013-07-02T13:15:20Z</time>
      </trkpt>
      <trkpt lat="45.52836" lon="2.81378">
        <ele>1875.3</ele>
        <time>2013-07-02T13:15:27Z</time>
      </trkpt>
      <trkpt lat="45.52841" lon="2.81377">
        <ele>1875</ele>
        <time>2013-07-02T13:15:37Z</time>
      </trkpt>
      <trkpt lat="45.52846" lon="2.81375">
        <ele>1874.8</ele>
        <time>2013-07-02T13:15:44Z</time>
      </trkpt>
      <trkpt lat="45.52851" lon="2.81372">
        <ele>1874.4</ele>
        <time>2013-07-02T13:15:52Z</time>
      </trkpt>
      <trkpt lat="45.52854" lon="2.81367">
        <ele>1873.8</ele>
        <time>2013-07-02T13:15:59Z</time>
      </trkpt>
      <trkpt lat="45.52858" lon="2.81362">
        <ele>1873.3</ele>
        <time>2013-07-02T13:16:06Z</time>
      </trkpt>
      <trkpt lat="45.52862" lon="2.81357">
        <ele>1872.2</ele>
        <time>2013-07-02T13:16:13Z</time>
      </trkpt>
      <trkpt lat="45.52862" lon="2.8135">
        <ele>1871</ele>
        <time>2013-07-02T13:16:21Z</time>
      </trkpt>
      <trkpt lat="45.52858" lon="2.81353">
        <ele>1872.2</ele>
        <time>2013-07-02T13:21:00Z</time>
      </trkpt>
      <trkpt lat="45.52863" lon="2.81352">
        <ele>1873</ele>
        <time>2013-07-02T13:21:40Z</time>
      </trkpt>
      <trkpt lat="45.52866" lon="2.81347">
        <ele>1873</ele>
        <time>2013-07-02T13:21:47Z</time>
      </trkpt>
      <trkpt lat="45.5287" lon="2.81342">
        <ele>1872.9</ele>
        <time>2013-07-02T13:21:54Z</time>
      </trkpt>
      <trkpt lat="45.52873" lon="2.81337">
        <ele>1872.7</ele>
        <time>2013-07-02T13:22:02Z</time>
      </trkpt>
      <trkpt lat="45.52877" lon="2.81333">
        <ele>1872.5</ele>
        <time>2013-07-02T13:22:10Z</time>
      </trkpt>
      <trkpt lat="45.5288" lon="2.81328">
        <ele>1872.2</ele>
        <time>2013-07-02T13:22:19Z</time>
      </trkpt>
      <trkpt lat="45.52883" lon="2.81323">
        <ele>1872</ele>
        <time>2013-07-02T13:22:28Z</time>
      </trkpt>
      <trkpt lat="45.52887" lon="2.8132">
        <ele>1871.7</ele>
        <time>2013-07-02T13:22:38Z</time>
      </trkpt>
      <trkpt lat="45.52891" lon="2.81316">
        <ele>1871.4</ele>
        <time>2013-07-02T13:22:48Z</time>
      </trkpt>
      <trkpt lat="45.52894" lon="2.81311">
        <ele>1871.1</ele>
        <time>2013-07-02T13:23:02Z</time>
      </trkpt>
      <trkpt lat="45.52899" lon="2.81309">
        <ele>1870.6</ele>
        <time>2013-07-02T13:23:15Z</time>
      </trkpt>
      <trkpt lat="45.52903" lon="2.81305">
        <ele>1870</ele>
        <time>2013-07-02T13:23:29Z</time>
      </trkpt>
      <trkpt lat="45.52906" lon="2.81301">
        <ele>1869.5</ele>
        <time>2013-07-02T13:23:42Z</time>
      </trkpt>
      <trkpt lat="45.5291" lon="2.81299">
        <ele>1868.7</ele>
        <time>2013-07-02T13:24:01Z</time>
      </trkpt>
      <trkpt lat="45.52915" lon="2.81296">
        <ele>1868.1</ele>
        <time>2013-07-02T13:24:18Z</time>
      </trkpt>
      <trkpt lat="45.52919" lon="2.81295">
        <ele>1867.5</ele>
        <time>2013-07-02T13:24:33Z</time>
      </trkpt>
      <trkpt lat="45.52924" lon="2.81292">
        <ele>1858.5</ele>
        <time>2013-07-02T13:25:04Z</time>
      </trkpt>
      <trkpt lat="45.52927" lon="2.81286">
        <ele>1856.8</ele>
        <time>2013-07-02T13:25:08Z</time>
      </trkpt>
      <trkpt lat="45.5293" lon="2.81281">
        <ele>1849.5</ele>
        <time>2013-07-02T13:25:23Z</time>
      </trkpt>
      <trkpt lat="45.52932" lon="2.81275">
        <ele>1847.2</ele>
        <time>2013-07-02T13:25:27Z</time>
      </trkpt>
      <trkpt lat="45.52934" lon="2.81269">
        <ele>1843</ele>
        <time>2013-07-02T13:25:36Z</time>
      </trkpt>
      <trkpt lat="45.52937" lon="2.81263">
        <ele>1836.7</ele>
        <time>2013-07-02T13:25:53Z</time>
      </trkpt>
      <trkpt lat="45.52938" lon="2.81256">
        <ele>1832.5</ele>
        <time>2013-07-02T13:26:05Z</time>
      </trkpt>
      <trkpt lat="45.52941" lon="2.81251">
        <ele>1829.2</ele>
        <time>2013-07-02T13:26:15Z</time>
      </trkpt>
      <trkpt lat="45.52944" lon="2.81244">
        <ele>1826.9</ele>
        <time>2013-07-02T13:26:20Z</time>
      </trkpt>
      <trkpt lat="45.52947" lon="2.81238">
        <ele>1825.7</ele>
        <time>2013-07-02T13:26:23Z</time>
      </trkpt>
      <trkpt lat="45.5295" lon="2.81232">
        <ele>1824.1</ele>
        <time>2013-07-02T13:26:28Z</time>
      </trkpt>
      <trkpt lat="45.52954" lon="2.8123">
        <ele>1822.4</ele>
        <time>2013-07-02T13:26:35Z</time>
      </trkpt>
      <trkpt lat="45.52959" lon="2.81226">
        <ele>1820.8</ele>
        <time>2013-07-02T13:26:42Z</time>
      </trkpt>
      <trkpt lat="45.52963" lon="2.81222">
        <ele>1820.1</ele>
        <time>2013-07-02T13:26:47Z</time>
      </trkpt>
      <trkpt lat="45.52966" lon="2.81217">
        <ele>1819.1</ele>
        <time>2013-07-02T13:26:52Z</time>
      </trkpt>
      <trkpt lat="45.52967" lon="2.81211">
        <ele>1818.6</ele>
        <time>2013-07-02T13:26:55Z</time>
      </trkpt>
      <trkpt lat="45.5297" lon="2.81204">
        <ele>1817.6</ele>
        <time>2013-07-02T13:27:01Z</time>
      </trkpt>
      <trkpt lat="45.52973" lon="2.81198">
        <ele>1816.1</ele>
        <time>2013-07-02T13:27:07Z</time>
      </trkpt>
      <trkpt lat="45.52977" lon="2.81194">
        <ele>1815</ele>
        <time>2013-07-02T13:27:12Z</time>
      </trkpt>
      <trkpt lat="45.5298" lon="2.81189">
        <ele>1814.1</ele>
        <time>2013-07-02T13:27:17Z</time>
      </trkpt>
      <trkpt lat="45.52982" lon="2.81183">
        <ele>1812.7</ele>
        <time>2013-07-02T13:27:24Z</time>
      </trkpt>
      <trkpt lat="45.52986" lon="2.81178">
        <ele>1812</ele>
        <time>2013-07-02T13:27:30Z</time>
      </trkpt>
      <trkpt lat="45.5299" lon="2.81175">
        <ele>1811.4</ele>
        <time>2013-07-02T13:27:35Z</time>
      </trkpt>
      <trkpt lat="45.52994" lon="2.81174">
        <ele>1811.2</ele>
        <time>2013-07-02T13:27:43Z</time>
      </trkpt>
      <trkpt lat="45.52998" lon="2.81177">
        <ele>1811.4</ele>
        <time>2013-07-02T13:28:28Z</time>
      </trkpt>
      <trkpt lat="45.52994" lon="2.81174">
        <ele>1811.6</ele>
        <time>2013-07-02T13:30:29Z</time>
      </trkpt>
      <trkpt lat="45.52998" lon="2.81171">
        <ele>1812</ele>
        <time>2013-07-02T13:32:41Z</time>
      </trkpt>
      <trkpt lat="45.52996" lon="2.81177">
        <ele>1812.4</ele>
        <time>2013-07-02T13:34:12Z</time>
      </trkpt>
      <trkpt lat="45.52998" lon="2.81171">
        <ele>1813.4</ele>
        <time>2013-07-02T13:35:40Z</time>
      </trkpt>
      <trkpt lat="45.52996" lon="2.81177">
        <ele>1812.9</ele>
        <time>2013-07-02T13:36:23Z</time>
      </trkpt>
      <trkpt lat="45.52997" lon="2.81183">
        <ele>1811.8</ele>
        <time>2013-07-02T13:36:51Z</time>
      </trkpt>
      <trkpt lat="45.52999" lon="2.8119">
        <ele>1811</ele>
        <time>2013-07-02T13:36:59Z</time>
      </trkpt>
      <trkpt lat="45.52998" lon="2.81196">
        <ele>1809.5</ele>
        <time>2013-07-02T13:37:08Z</time>
      </trkpt>
      <trkpt lat="45.52997" lon="2.81203">
        <ele>1808.6</ele>
        <time>2013-07-02T13:37:16Z</time>
      </trkpt>
      <trkpt lat="45.52995" lon="2.81209">
        <ele>1806.6</ele>
        <time>2013-07-02T13:37:30Z</time>
      </trkpt>
      <trkpt lat="45.52995" lon="2.81215">
        <ele>1805.8</ele>
        <time>2013-07-02T13:37:38Z</time>
      </trkpt>
      <trkpt lat="45.52996" lon="2.81222">
        <ele>1803.9</ele>
        <time>2013-07-02T13:37:50Z</time>
      </trkpt>
      <trkpt lat="45.52996" lon="2.81229">
        <ele>1802.2</ele>
        <time>2013-07-02T13:38:01Z</time>
      </trkpt>
      <trkpt lat="45.52996" lon="2.81235">
        <ele>1800.7</ele>
        <time>2013-07-02T13:38:10Z</time>
      </trkpt>
      <trkpt lat="45.52995" lon="2.81242">
        <ele>1799.2</ele>
        <time>2013-07-02T13:38:20Z</time>
      </trkpt>
      <trkpt lat="45.52994" lon="2.81249">
        <ele>1796.3</ele>
        <time>2013-07-02T13:38:36Z</time>
      </trkpt>
      <trkpt lat="45.52994" lon="2.81255">
        <ele>1794.9</ele>
        <time>2013-07-02T13:38:43Z</time>
      </trkpt>
      <trkpt lat="45.52995" lon="2.81261">
        <ele>1793.1</ele>
        <time>2013-07-02T13:38:53Z</time>
      </trkpt>
      <trkpt lat="45.52996" lon="2.81268">
        <ele>1791.6</ele>
        <time>2013-07-02T13:39:04Z</time>
      </trkpt>
      <trkpt lat="45.52998" lon="2.81274">
        <ele>1790.4</ele>
        <time>2013-07-02T13:39:13Z</time>
      </trkpt>
      <trkpt lat="45.52998" lon="2.8128">
        <ele>1788</ele>
        <time>2013-07-02T13:39:39Z</time>
      </trkpt>
      <trkpt lat="45.52998" lon="2.81287">
        <ele>1787</ele>
        <time>2013-07-02T13:39:44Z</time>
      </trkpt>
      <trkpt lat="45.52997" lon="2.81294">
        <ele>1785.3</ele>
        <time>2013-07-02T13:39:52Z</time>
      </trkpt>
      <trkpt lat="45.52999" lon="2.813">
        <ele>1783.9</ele>
        <time>2013-07-02T13:39:59Z</time>
      </trkpt>
      <trkpt lat="45.53002" lon="2.81306">
        <ele>1781.2</ele>
        <time>2013-07-02T13:40:10Z</time>
      </trkpt>
      <trkpt lat="45.53001" lon="2.81313">
        <ele>1779.8</ele>
        <time>2013-07-02T13:40:19Z</time>
      </trkpt>
      <trkpt lat="45.53002" lon="2.81319">
        <ele>1779.1</ele>
        <time>2013-07-02T13:40:24Z</time>
      </trkpt>
      <trkpt lat="45.53004" lon="2.81326">
        <ele>1778.3</ele>
        <time>2013-07-02T13:40:30Z</time>
      </trkpt>
      <trkpt lat="45.53006" lon="2.81331">
        <ele>1777.6</ele>
        <time>2013-07-02T13:40:35Z</time>
      </trkpt>
      <trkpt lat="45.53008" lon="2.81336">
        <ele>1776.8</ele>
        <time>2013-07-02T13:40:40Z</time>
      </trkpt>
      <trkpt lat="45.5301" lon="2.81343">
        <ele>1775.8</ele>
        <time>2013-07-02T13:40:47Z</time>
      </trkpt>
      <trkpt lat="45.53013" lon="2.81338">
        <ele>1773.9</ele>
        <time>2013-07-02T13:41:02Z</time>
      </trkpt>
      <trkpt lat="45.53016" lon="2.81332">
        <ele>1772.9</ele>
        <time>2013-07-02T13:41:08Z</time>
      </trkpt>
      <trkpt lat="45.53019" lon="2.81326">
        <ele>1772</ele>
        <time>2013-07-02T13:41:13Z</time>
      </trkpt>
      <trkpt lat="45.53021" lon="2.81321">
        <ele>1771.1</ele>
        <time>2013-07-02T13:41:19Z</time>
      </trkpt>
      <trkpt lat="45.53025" lon="2.81315">
        <ele>1770.2</ele>
        <time>2013-07-02T13:41:24Z</time>
      </trkpt>
      <trkpt lat="45.53028" lon="2.8131">
        <ele>1769.2</ele>
        <time>2013-07-02T13:41:29Z</time>
      </trkpt>
      <trkpt lat="45.5303" lon="2.81303">
        <ele>1768.3</ele>
        <time>2013-07-02T13:41:33Z</time>
      </trkpt>
      <trkpt lat="45.53032" lon="2.81297">
        <ele>1767.3</ele>
        <time>2013-07-02T13:41:38Z</time>
      </trkpt>
      <trkpt lat="45.53034" lon="2.81291">
        <ele>1766.5</ele>
        <time>2013-07-02T13:41:45Z</time>
      </trkpt>
      <trkpt lat="45.53038" lon="2.81286">
        <ele>1766.7</ele>
        <time>2013-07-02T13:41:50Z</time>
      </trkpt>
      <trkpt lat="45.53043" lon="2.81284">
        <ele>1766.6</ele>
        <time>2013-07-02T13:41:55Z</time>
      </trkpt>
      <trkpt lat="45.53048" lon="2.81284">
        <ele>1766.4</ele>
        <time>2013-07-02T13:41:59Z</time>
      </trkpt>
      <trkpt lat="45.53051" lon="2.81289">
        <ele>1765.8</ele>
        <time>2013-07-02T13:42:08Z</time>
      </trkpt>
      <trkpt lat="45.53055" lon="2.81291">
        <ele>1766</ele>
        <time>2013-07-02T13:43:43Z</time>
      </trkpt>
      <trkpt lat="45.53051" lon="2.81288">
        <ele>1767.6</ele>
        <time>2013-07-02T13:44:24Z</time>
      </trkpt>
      <trkpt lat="45.53046" lon="2.81288">
        <ele>1767.9</ele>
        <time>2013-07-02T13:44:30Z</time>
      </trkpt>
      <trkpt lat="45.53042" lon="2.81288">
        <ele>1767.7</ele>
        <time>2013-07-02T13:44:35Z</time>
      </trkpt>
      <trkpt lat="45.53037" lon="2.81291">
        <ele>1767.7</ele>
        <time>2013-07-02T13:44:42Z</time>
      </trkpt>
      <trkpt lat="45.53033" lon="2.81294">
        <ele>1767.8</ele>
        <time>2013-07-02T13:44:47Z</time>
      </trkpt>
      <trkpt lat="45.53031" lon="2.81301">
        <ele>1767.3</ele>
        <time>2013-07-02T13:44:54Z</time>
      </trkpt>
      <trkpt lat="45.53029" lon="2.81308">
        <ele>1767.3</ele>
        <time>2013-07-02T13:44:58Z</time>
      </trkpt>
      <trkpt lat="45.53027" lon="2.81315">
        <ele>1767.4</ele>
        <time>2013-07-02T13:45:04Z</time>
      </trkpt>
      <trkpt lat="45.53025" lon="2.81321">
        <ele>1767.4</ele>
        <time>2013-07-02T13:45:07Z</time>
      </trkpt>
      <trkpt lat="45.53021" lon="2.81326">
        <ele>1767.2</ele>
        <time>2013-07-02T13:45:12Z</time>
      </trkpt>
      <trkpt lat="45.53018" lon="2.8133">
        <ele>1766.9</ele>
        <time>2013-07-02T13:45:18Z</time>
      </trkpt>
      <trkpt lat="45.53015" lon="2.81335">
        <ele>1766.9</ele>
        <time>2013-07-02T13:45:23Z</time>
      </trkpt>
      <trkpt lat="45.53012" lon="2.8134">
        <ele>1766.9</ele>
        <time>2013-07-02T13:45:27Z</time>
      </trkpt>
      <trkpt lat="45.53009" lon="2.81345">
        <ele>1767.2</ele>
        <time>2013-07-02T13:45:31Z</time>
      </trkpt>
      <trkpt lat="45.53005" lon="2.81353">
        <ele>1767.7</ele>
        <time>2013-07-02T13:45:36Z</time>
      </trkpt>
      <trkpt lat="45.53003" lon="2.81359">
        <ele>1768</ele>
        <time>2013-07-02T13:45:41Z</time>
      </trkpt>
      <trkpt lat="45.53" lon="2.81365">
        <ele>1768.6</ele>
        <time>2013-07-02T13:45:46Z</time>
      </trkpt>
      <trkpt lat="45.52998" lon="2.81371">
        <ele>1768.8</ele>
        <time>2013-07-02T13:45:51Z</time>
      </trkpt>
      <trkpt lat="45.52998" lon="2.81378">
        <ele>1768.9</ele>
        <time>2013-07-02T13:45:57Z</time>
      </trkpt>
      <trkpt lat="45.52996" lon="2.81384">
        <ele>1769.2</ele>
        <time>2013-07-02T13:46:02Z</time>
      </trkpt>
      <trkpt lat="45.52995" lon="2.81392">
        <ele>1770</ele>
        <time>2013-07-02T13:46:09Z</time>
      </trkpt>
      <trkpt lat="45.52993" lon="2.81397">
        <ele>1770.7</ele>
        <time>2013-07-02T13:46:16Z</time>
      </trkpt>
      <trkpt lat="45.5299" lon="2.81403">
        <ele>1771.4</ele>
        <time>2013-07-02T13:46:23Z</time>
      </trkpt>
      <trkpt lat="45.52987" lon="2.81408">
        <ele>1772</ele>
        <time>2013-07-02T13:46:29Z</time>
      </trkpt>
      <trkpt lat="45.52984" lon="2.81414">
        <ele>1772.3</ele>
        <time>2013-07-02T13:46:34Z</time>
      </trkpt>
      <trkpt lat="45.5298" lon="2.81419">
        <ele>1772.5</ele>
        <time>2013-07-02T13:46:38Z</time>
      </trkpt>
      <trkpt lat="45.52975" lon="2.81423">
        <ele>1773.1</ele>
        <time>2013-07-02T13:46:45Z</time>
      </trkpt>
      <trkpt lat="45.52972" lon="2.81428">
        <ele>1774.2</ele>
        <time>2013-07-02T13:46:58Z</time>
      </trkpt>
      <trkpt lat="45.52968" lon="2.81433">
        <ele>1774.9</ele>
        <time>2013-07-02T13:47:04Z</time>
      </trkpt>
      <trkpt lat="45.52966" lon="2.81439">
        <ele>1775.7</ele>
        <time>2013-07-02T13:47:10Z</time>
      </trkpt>
      <trkpt lat="45.52963" lon="2.81444">
        <ele>1776</ele>
        <time>2013-07-02T13:47:16Z</time>
      </trkpt>
      <trkpt lat="45.52959" lon="2.81447">
        <ele>1776.2</ele>
        <time>2013-07-02T13:47:22Z</time>
      </trkpt>
      <trkpt lat="45.52955" lon="2.81452">
        <ele>1776.4</ele>
        <time>2013-07-02T13:47:26Z</time>
      </trkpt>
      <trkpt lat="45.52951" lon="2.81455">
        <ele>1777</ele>
        <time>2013-07-02T13:47:31Z</time>
      </trkpt>
      <trkpt lat="45.52947" lon="2.81458">
        <ele>1777.5</ele>
        <time>2013-07-02T13:47:38Z</time>
      </trkpt>
      <trkpt lat="45.52944" lon="2.81453">
        <ele>1777.8</ele>
        <time>2013-07-02T13:48:10Z</time>
      </trkpt>
      <trkpt lat="45.52941" lon="2.81458">
        <ele>1777.8</ele>
        <time>2013-07-02T13:48:36Z</time>
      </trkpt>
      <trkpt lat="45.52938" lon="2.81462">
        <ele>1777.3</ele>
        <time>2013-07-02T13:49:05Z</time>
      </trkpt>
      <trkpt lat="45.5294" lon="2.81469">
        <ele>1776.9</ele>
        <time>2013-07-02T13:49:17Z</time>
      </trkpt>
      <trkpt lat="45.52943" lon="2.81474">
        <ele>1776.9</ele>
        <time>2013-07-02T13:49:23Z</time>
      </trkpt>
      <trkpt lat="45.52939" lon="2.8147">
        <ele>1776.6</ele>
        <time>2013-07-02T13:49:39Z</time>
      </trkpt>
      <trkpt lat="45.52936" lon="2.81465">
        <ele>1776.8</ele>
        <time>2013-07-02T13:49:56Z</time>
      </trkpt>
      <trkpt lat="45.52932" lon="2.81462">
        <ele>1777.1</ele>
        <time>2013-07-02T13:50:10Z</time>
      </trkpt>
      <trkpt lat="45.52927" lon="2.81466">
        <ele>1776.3</ele>
        <time>2013-07-02T13:50:20Z</time>
      </trkpt>
      <trkpt lat="45.52924" lon="2.81471">
        <ele>1776.1</ele>
        <time>2013-07-02T13:50:30Z</time>
      </trkpt>
      <trkpt lat="45.52919" lon="2.81472">
        <ele>1775.9</ele>
        <time>2013-07-02T13:50:37Z</time>
      </trkpt>
      <trkpt lat="45.52914" lon="2.81475">
        <ele>1775.8</ele>
        <time>2013-07-02T13:50:44Z</time>
      </trkpt>
      <trkpt lat="45.5291" lon="2.81479">
        <ele>1775.9</ele>
        <time>2013-07-02T13:50:49Z</time>
      </trkpt>
      <trkpt lat="45.52906" lon="2.81483">
        <ele>1775.9</ele>
        <time>2013-07-02T13:50:55Z</time>
      </trkpt>
      <trkpt lat="45.52902" lon="2.81487">
        <ele>1776.2</ele>
        <time>2013-07-02T13:51:00Z</time>
      </trkpt>
      <trkpt lat="45.52899" lon="2.81491">
        <ele>1776.3</ele>
        <time>2013-07-02T13:51:07Z</time>
      </trkpt>
      <trkpt lat="45.52896" lon="2.81497">
        <ele>1776.3</ele>
        <time>2013-07-02T13:51:12Z</time>
      </trkpt>
      <trkpt lat="45.52894" lon="2.81504">
        <ele>1776.4</ele>
        <time>2013-07-02T13:51:18Z</time>
      </trkpt>
      <trkpt lat="45.5289" lon="2.8151">
        <ele>1776.4</ele>
        <time>2013-07-02T13:51:23Z</time>
      </trkpt>
      <trkpt lat="45.52885" lon="2.81513">
        <ele>1776.7</ele>
        <time>2013-07-02T13:51:30Z</time>
      </trkpt>
      <trkpt lat="45.5288" lon="2.81516">
        <ele>1777.1</ele>
        <time>2013-07-02T13:51:38Z</time>
      </trkpt>
      <trkpt lat="45.52877" lon="2.8152">
        <ele>1777.4</ele>
        <time>2013-07-02T13:51:42Z</time>
      </trkpt>
      <trkpt lat="45.52873" lon="2.81525">
        <ele>1777.8</ele>
        <time>2013-07-02T13:51:46Z</time>
      </trkpt>
      <trkpt lat="45.52869" lon="2.81529">
        <ele>1778.2</ele>
        <time>2013-07-02T13:51:51Z</time>
      </trkpt>
      <trkpt lat="45.52866" lon="2.81533">
        <ele>1778.7</ele>
        <time>2013-07-02T13:51:56Z</time>
      </trkpt>
      <trkpt lat="45.52862" lon="2.81538">
        <ele>1779.4</ele>
        <time>2013-07-02T13:52:01Z</time>
      </trkpt>
      <trkpt lat="45.52859" lon="2.81543">
        <ele>1780</ele>
        <time>2013-07-02T13:52:06Z</time>
      </trkpt>
      <trkpt lat="45.52855" lon="2.81549">
        <ele>1780.3</ele>
        <time>2013-07-02T13:52:11Z</time>
      </trkpt>
      <trkpt lat="45.52851" lon="2.81553">
        <ele>1780.3</ele>
        <time>2013-07-02T13:52:18Z</time>
      </trkpt>
      <trkpt lat="45.52847" lon="2.81558">
        <ele>1780.3</ele>
        <time>2013-07-02T13:52:25Z</time>
      </trkpt>
      <trkpt lat="45.52843" lon="2.81566">
        <ele>1779.8</ele>
        <time>2013-07-02T13:52:30Z</time>
      </trkpt>
      <trkpt lat="45.52842" lon="2.81573">
        <ele>1779.3</ele>
        <time>2013-07-02T13:52:35Z</time>
      </trkpt>
      <trkpt lat="45.52842" lon="2.81579">
        <ele>1779.2</ele>
        <time>2013-07-02T13:52:43Z</time>
      </trkpt>
      <trkpt lat="45.52838" lon="2.81583">
        <ele>1779.4</ele>
        <time>2013-07-02T13:52:51Z</time>
      </trkpt>
      <trkpt lat="45.52838" lon="2.8159">
        <ele>1779.9</ele>
        <time>2013-07-02T13:53:07Z</time>
      </trkpt>
      <trkpt lat="45.52835" lon="2.81594">
        <ele>1780.7</ele>
        <time>2013-07-02T13:53:16Z</time>
      </trkpt>
      <trkpt lat="45.52833" lon="2.81601">
        <ele>1780.7</ele>
        <time>2013-07-02T13:53:21Z</time>
      </trkpt>
      <trkpt lat="45.52832" lon="2.81608">
        <ele>1780.6</ele>
        <time>2013-07-02T13:53:34Z</time>
      </trkpt>
      <trkpt lat="45.52832" lon="2.81615">
        <ele>1780.2</ele>
        <time>2013-07-02T13:53:40Z</time>
      </trkpt>
      <trkpt lat="45.52831" lon="2.81622">
        <ele>1780.1</ele>
        <time>2013-07-02T13:53:45Z</time>
      </trkpt>
      <trkpt lat="45.5283" lon="2.81629">
        <ele>1780.2</ele>
        <time>2013-07-02T13:53:52Z</time>
      </trkpt>
      <trkpt lat="45.52827" lon="2.81634">
        <ele>1780.3</ele>
        <time>2013-07-02T13:53:58Z</time>
      </trkpt>
      <trkpt lat="45.52822" lon="2.81637">
        <ele>1780.5</ele>
        <time>2013-07-02T13:54:11Z</time>
      </trkpt>
      <trkpt lat="45.52822" lon="2.81643">
        <ele>1779.1</ele>
        <time>2013-07-02T13:55:23Z</time>
      </trkpt>
      <trkpt lat="45.52819" lon="2.81649">
        <ele>1777.5</ele>
        <time>2013-07-02T13:55:54Z</time>
      </trkpt>
      <trkpt lat="45.52814" lon="2.81653">
        <ele>1777</ele>
        <time>2013-07-02T13:56:13Z</time>
      </trkpt>
      <trkpt lat="45.52809" lon="2.81656">
        <ele>1776.6</ele>
        <time>2013-07-02T13:56:18Z</time>
      </trkpt>
      <trkpt lat="45.52805" lon="2.8166">
        <ele>1776.5</ele>
        <time>2013-07-02T13:56:23Z</time>
      </trkpt>
      <trkpt lat="45.52802" lon="2.81664">
        <ele>1776.5</ele>
        <time>2013-07-02T13:56:29Z</time>
      </trkpt>
      <trkpt lat="45.52798" lon="2.81669">
        <ele>1776.4</ele>
        <time>2013-07-02T13:56:36Z</time>
      </trkpt>
      <trkpt lat="45.52794" lon="2.81673">
        <ele>1776.3</ele>
        <time>2013-07-02T13:56:41Z</time>
      </trkpt>
      <trkpt lat="45.52793" lon="2.81679">
        <ele>1775.8</ele>
        <time>2013-07-02T13:56:53Z</time>
      </trkpt>
      <trkpt lat="45.52789" lon="2.81677">
        <ele>1775.7</ele>
        <time>2013-07-02T13:57:08Z</time>
      </trkpt>
      <trkpt lat="45.52788" lon="2.81683">
        <ele>1775.6</ele>
        <time>2013-07-02T13:58:18Z</time>
      </trkpt>
      <trkpt lat="45.52784" lon="2.81688">
        <ele>1775.7</ele>
        <time>2013-07-02T13:58:27Z</time>
      </trkpt>
      <trkpt lat="45.52779" lon="2.81692">
        <ele>1775.7</ele>
        <time>2013-07-02T13:58:32Z</time>
      </trkpt>
      <trkpt lat="45.52775" lon="2.81696">
        <ele>1775.6</ele>
        <time>2013-07-02T13:58:36Z</time>
      </trkpt>
      <trkpt lat="45.52772" lon="2.817">
        <ele>1775.7</ele>
        <time>2013-07-02T13:58:39Z</time>
      </trkpt>
      <trkpt lat="45.52768" lon="2.81705">
        <ele>1775.8</ele>
        <time>2013-07-02T13:58:43Z</time>
      </trkpt>
      <trkpt lat="45.52764" lon="2.81709">
        <ele>1775.7</ele>
        <time>2013-07-02T13:58:46Z</time>
      </trkpt>
      <trkpt lat="45.52761" lon="2.81715">
        <ele>1775.5</ele>
        <time>2013-07-02T13:58:51Z</time>
      </trkpt>
      <trkpt lat="45.52759" lon="2.81721">
        <ele>1775.5</ele>
        <time>2013-07-02T13:58:57Z</time>
      </trkpt>
      <trkpt lat="45.52756" lon="2.81726">
        <ele>1775.5</ele>
        <time>2013-07-02T13:59:02Z</time>
      </trkpt>
      <trkpt lat="45.52752" lon="2.81731">
        <ele>1775.6</ele>
        <time>2013-07-02T13:59:06Z</time>
      </trkpt>
      <trkpt lat="45.5275" lon="2.81738">
        <ele>1775.8</ele>
        <time>2013-07-02T13:59:11Z</time>
      </trkpt>
      <trkpt lat="45.52747" lon="2.81745">
        <ele>1776</ele>
        <time>2013-07-02T13:59:17Z</time>
      </trkpt>
      <trkpt lat="45.52744" lon="2.81749">
        <ele>1775.9</ele>
        <time>2013-07-02T13:59:22Z</time>
      </trkpt>
      <trkpt lat="45.52741" lon="2.81756">
        <ele>1776</ele>
        <time>2013-07-02T13:59:27Z</time>
      </trkpt>
      <trkpt lat="45.52739" lon="2.81762">
        <ele>1776.4</ele>
        <time>2013-07-02T13:59:33Z</time>
      </trkpt>
      <trkpt lat="45.52737" lon="2.8177">
        <ele>1776.7</ele>
        <time>2013-07-02T13:59:55Z</time>
      </trkpt>
      <trkpt lat="45.5274" lon="2.81776">
        <ele>1777.1</ele>
        <time>2013-07-02T14:00:01Z</time>
      </trkpt>
      <trkpt lat="45.52741" lon="2.81784">
        <ele>1777.6</ele>
        <time>2013-07-02T14:00:06Z</time>
      </trkpt>
      <trkpt lat="45.52742" lon="2.8179">
        <ele>1777.8</ele>
        <time>2013-07-02T14:00:11Z</time>
      </trkpt>
      <trkpt lat="45.52743" lon="2.81797">
        <ele>1777.4</ele>
        <time>2013-07-02T14:00:17Z</time>
      </trkpt>
      <trkpt lat="45.52743" lon="2.81803">
        <ele>1776.8</ele>
        <time>2013-07-02T14:00:26Z</time>
      </trkpt>
      <trkpt lat="45.52743" lon="2.8181">
        <ele>1777</ele>
        <time>2013-07-02T14:00:31Z</time>
      </trkpt>
      <trkpt lat="45.52743" lon="2.81818">
        <ele>1777.2</ele>
        <time>2013-07-02T14:00:36Z</time>
      </trkpt>
      <trkpt lat="45.52743" lon="2.81825">
        <ele>1777.3</ele>
        <time>2013-07-02T14:00:41Z</time>
      </trkpt>
      <trkpt lat="45.52742" lon="2.81833">
        <ele>1777.2</ele>
        <time>2013-07-02T14:00:45Z</time>
      </trkpt>
      <trkpt lat="45.52742" lon="2.81841">
        <ele>1777.1</ele>
        <time>2013-07-02T14:00:50Z</time>
      </trkpt>
      <trkpt lat="45.52741" lon="2.81849">
        <ele>1776.8</ele>
        <time>2013-07-02T14:00:55Z</time>
      </trkpt>
      <trkpt lat="45.52742" lon="2.81856">
        <ele>1776.6</ele>
        <time>2013-07-02T14:00:59Z</time>
      </trkpt>
      <trkpt lat="45.52744" lon="2.81864">
        <ele>1776.2</ele>
        <time>2013-07-02T14:01:05Z</time>
      </trkpt>
      <trkpt lat="45.52743" lon="2.81871">
        <ele>1775.9</ele>
        <time>2013-07-02T14:01:09Z</time>
      </trkpt>
      <trkpt lat="45.52744" lon="2.81879">
        <ele>1775.2</ele>
        <time>2013-07-02T14:01:15Z</time>
      </trkpt>
      <trkpt lat="45.52744" lon="2.81887">
        <ele>1774.6</ele>
        <time>2013-07-02T14:01:20Z</time>
      </trkpt>
      <trkpt lat="45.52744" lon="2.81894">
        <ele>1774.1</ele>
        <time>2013-07-02T14:01:24Z</time>
      </trkpt>
      <trkpt lat="45.52744" lon="2.81901">
        <ele>1773.5</ele>
        <time>2013-07-02T14:01:28Z</time>
      </trkpt>
      <trkpt lat="45.52744" lon="2.81908">
        <ele>1772.5</ele>
        <time>2013-07-02T14:01:33Z</time>
      </trkpt>
      <trkpt lat="45.52743" lon="2.81916">
        <ele>1771.2</ele>
        <time>2013-07-02T14:01:40Z</time>
      </trkpt>
      <trkpt lat="45.52742" lon="2.81923">
        <ele>1770.2</ele>
        <time>2013-07-02T14:01:46Z</time>
      </trkpt>
      <trkpt lat="45.52741" lon="2.81929">
        <ele>1769.1</ele>
        <time>2013-07-02T14:01:53Z</time>
      </trkpt>
      <trkpt lat="45.5274" lon="2.81936">
        <ele>1767.8</ele>
        <time>2013-07-02T14:02:00Z</time>
      </trkpt>
      <trkpt lat="45.5274" lon="2.81943">
        <ele>1766.7</ele>
        <time>2013-07-02T14:02:05Z</time>
      </trkpt>
      <trkpt lat="45.52739" lon="2.8195">
        <ele>1765.5</ele>
        <time>2013-07-02T14:02:10Z</time>
      </trkpt>
      <trkpt lat="45.5274" lon="2.81957">
        <ele>1764.3</ele>
        <time>2013-07-02T14:02:17Z</time>
      </trkpt>
      <trkpt lat="45.52744" lon="2.8196">
        <ele>1763.6</ele>
        <time>2013-07-02T14:02:22Z</time>
      </trkpt>
      <trkpt lat="45.52748" lon="2.8196">
        <ele>1763.2</ele>
        <time>2013-07-02T14:02:26Z</time>
      </trkpt>
      <trkpt lat="45.52752" lon="2.81955">
        <ele>1762.8</ele>
        <time>2013-07-02T14:02:31Z</time>
      </trkpt>
      <trkpt lat="45.52754" lon="2.8195">
        <ele>1761.4</ele>
        <time>2013-07-02T14:02:41Z</time>
      </trkpt>
      <trkpt lat="45.52759" lon="2.81945">
        <ele>1760.3</ele>
        <time>2013-07-02T14:02:48Z</time>
      </trkpt>
      <trkpt lat="45.52763" lon="2.81941">
        <ele>1759.9</ele>
        <time>2013-07-02T14:02:51Z</time>
      </trkpt>
      <trkpt lat="45.52766" lon="2.81936">
        <ele>1759.2</ele>
        <time>2013-07-02T14:02:58Z</time>
      </trkpt>
      <trkpt lat="45.5277" lon="2.81931">
        <ele>1758.6</ele>
        <time>2013-07-02T14:03:03Z</time>
      </trkpt>
      <trkpt lat="45.52774" lon="2.81929">
        <ele>1757.3</ele>
        <time>2013-07-02T14:03:09Z</time>
      </trkpt>
      <trkpt lat="45.52778" lon="2.81933">
        <ele>1755.6</ele>
        <time>2013-07-02T14:03:17Z</time>
      </trkpt>
      <trkpt lat="45.5278" lon="2.81939">
        <ele>1754.7</ele>
        <time>2013-07-02T14:03:23Z</time>
      </trkpt>
      <trkpt lat="45.52778" lon="2.81946">
        <ele>1753.7</ele>
        <time>2013-07-02T14:03:30Z</time>
      </trkpt>
      <trkpt lat="45.52777" lon="2.81952">
        <ele>1752.8</ele>
        <time>2013-07-02T14:03:35Z</time>
      </trkpt>
      <trkpt lat="45.52777" lon="2.81959">
        <ele>1752.2</ele>
        <time>2013-07-02T14:03:39Z</time>
      </trkpt>
      <trkpt lat="45.5278" lon="2.81966">
        <ele>1751.4</ele>
        <time>2013-07-02T14:03:44Z</time>
      </trkpt>
      <trkpt lat="45.52782" lon="2.81974">
        <ele>1750.5</ele>
        <time>2013-07-02T14:03:50Z</time>
      </trkpt>
      <trkpt lat="45.52785" lon="2.81981">
        <ele>1749.8</ele>
        <time>2013-07-02T14:03:55Z</time>
      </trkpt>
      <trkpt lat="45.52786" lon="2.81987">
        <ele>1749.4</ele>
        <time>2013-07-02T14:03:59Z</time>
      </trkpt>
      <trkpt lat="45.52787" lon="2.81994">
        <ele>1747.7</ele>
        <time>2013-07-02T14:04:10Z</time>
      </trkpt>
      <trkpt lat="45.52789" lon="2.82">
        <ele>1747</ele>
        <time>2013-07-02T14:04:14Z</time>
      </trkpt>
      <trkpt lat="45.52789" lon="2.82006">
        <ele>1746.3</ele>
        <time>2013-07-02T14:04:18Z</time>
      </trkpt>
      <trkpt lat="45.52791" lon="2.82012">
        <ele>1745.3</ele>
        <time>2013-07-02T14:04:23Z</time>
      </trkpt>
      <trkpt lat="45.52793" lon="2.82018">
        <ele>1744.5</ele>
        <time>2013-07-02T14:04:28Z</time>
      </trkpt>
      <trkpt lat="45.52795" lon="2.82026">
        <ele>1743.6</ele>
        <time>2013-07-02T14:04:33Z</time>
      </trkpt>
      <trkpt lat="45.52796" lon="2.82034">
        <ele>1742.9</ele>
        <time>2013-07-02T14:04:38Z</time>
      </trkpt>
      <trkpt lat="45.52796" lon="2.82042">
        <ele>1742.2</ele>
        <time>2013-07-02T14:04:44Z</time>
      </trkpt>
      <trkpt lat="45.52797" lon="2.82049">
        <ele>1741.3</ele>
        <time>2013-07-02T14:04:49Z</time>
      </trkpt>
      <trkpt lat="45.52799" lon="2.82057">
        <ele>1740.4</ele>
        <time>2013-07-02T14:04:54Z</time>
      </trkpt>
      <trkpt lat="45.528" lon="2.82063">
        <ele>1739.8</ele>
        <time>2013-07-02T14:04:58Z</time>
      </trkpt>
      <trkpt lat="45.528" lon="2.8207">
        <ele>1739.4</ele>
        <time>2013-07-02T14:05:01Z</time>
      </trkpt>
      <trkpt lat="45.52801" lon="2.82077">
        <ele>1738.6</ele>
        <time>2013-07-02T14:05:06Z</time>
      </trkpt>
      <trkpt lat="45.52803" lon="2.82085">
        <ele>1737.7</ele>
        <time>2013-07-02T14:05:11Z</time>
      </trkpt>
      <trkpt lat="45.52803" lon="2.82092">
        <ele>1736.9</ele>
        <time>2013-07-02T14:05:15Z</time>
      </trkpt>
      <trkpt lat="45.52804" lon="2.82099">
        <ele>1736.1</ele>
        <time>2013-07-02T14:05:21Z</time>
      </trkpt>
      <trkpt lat="45.52804" lon="2.82107">
        <ele>1735.2</ele>
        <time>2013-07-02T14:05:27Z</time>
      </trkpt>
      <trkpt lat="45.52805" lon="2.82114">
        <ele>1734.3</ele>
        <time>2013-07-02T14:05:32Z</time>
      </trkpt>
      <trkpt lat="45.5281" lon="2.82118">
        <ele>1733.7</ele>
        <time>2013-07-02T14:05:37Z</time>
      </trkpt>
      <trkpt lat="45.52814" lon="2.82121">
        <ele>1733.1</ele>
        <time>2013-07-02T14:05:41Z</time>
      </trkpt>
      <trkpt lat="45.52818" lon="2.82125">
        <ele>1732.4</ele>
        <time>2013-07-02T14:05:46Z</time>
      </trkpt>
      <trkpt lat="45.52822" lon="2.82129">
        <ele>1731.7</ele>
        <time>2013-07-02T14:05:51Z</time>
      </trkpt>
      <trkpt lat="45.52826" lon="2.82135">
        <ele>1731.1</ele>
        <time>2013-07-02T14:05:55Z</time>
      </trkpt>
      <trkpt lat="45.5283" lon="2.8214">
        <ele>1730.1</ele>
        <time>2013-07-02T14:06:00Z</time>
      </trkpt>
      <trkpt lat="45.52833" lon="2.82145">
        <ele>1729.6</ele>
        <time>2013-07-02T14:06:04Z</time>
      </trkpt>
      <trkpt lat="45.52837" lon="2.8215">
        <ele>1729.1</ele>
        <time>2013-07-02T14:06:09Z</time>
      </trkpt>
      <trkpt lat="45.52842" lon="2.82153">
        <ele>1728.8</ele>
        <time>2013-07-02T14:06:13Z</time>
      </trkpt>
      <trkpt lat="45.52847" lon="2.82155">
        <ele>1728.3</ele>
        <time>2013-07-02T14:06:18Z</time>
      </trkpt>
      <trkpt lat="45.52852" lon="2.82152">
        <ele>1727</ele>
        <time>2013-07-02T14:06:32Z</time>
      </trkpt>
      <trkpt lat="45.52856" lon="2.82148">
        <ele>1726.6</ele>
        <time>2013-07-02T14:06:37Z</time>
      </trkpt>
      <trkpt lat="45.52858" lon="2.82141">
        <ele>1724.9</ele>
        <time>2013-07-02T14:07:07Z</time>
      </trkpt>
      <trkpt lat="45.52859" lon="2.82135">
        <ele>1724.6</ele>
        <time>2013-07-02T14:07:15Z</time>
      </trkpt>
      <trkpt lat="45.52859" lon="2.82128">
        <ele>1722.7</ele>
        <time>2013-07-02T14:07:49Z</time>
      </trkpt>
      <trkpt lat="45.52861" lon="2.82122">
        <ele>1721.7</ele>
        <time>2013-07-02T14:07:59Z</time>
      </trkpt>
      <trkpt lat="45.52862" lon="2.82115">
        <ele>1720.9</ele>
        <time>2013-07-02T14:08:05Z</time>
      </trkpt>
      <trkpt lat="45.52865" lon="2.8211">
        <ele>1719.7</ele>
        <time>2013-07-02T14:08:13Z</time>
      </trkpt>
      <trkpt lat="45.5287" lon="2.82109">
        <ele>1718</ele>
        <time>2013-07-02T14:08:23Z</time>
      </trkpt>
      <trkpt lat="45.52875" lon="2.82108">
        <ele>1716.7</ele>
        <time>2013-07-02T14:08:30Z</time>
      </trkpt>
      <trkpt lat="45.5288" lon="2.82107">
        <ele>1715.8</ele>
        <time>2013-07-02T14:08:36Z</time>
      </trkpt>
      <trkpt lat="45.52885" lon="2.82106">
        <ele>1715.1</ele>
        <time>2013-07-02T14:08:43Z</time>
      </trkpt>
      <trkpt lat="45.5289" lon="2.82104">
        <ele>1714.7</ele>
        <time>2013-07-02T14:08:48Z</time>
      </trkpt>
      <trkpt lat="45.52894" lon="2.82101">
        <ele>1714.2</ele>
        <time>2013-07-02T14:08:55Z</time>
      </trkpt>
      <trkpt lat="45.52899" lon="2.82099">
        <ele>1713.7</ele>
        <time>2013-07-02T14:09:01Z</time>
      </trkpt>
      <trkpt lat="45.52903" lon="2.82096">
        <ele>1713.1</ele>
        <time>2013-07-02T14:09:07Z</time>
      </trkpt>
      <trkpt lat="45.52907" lon="2.82093">
        <ele>1712.5</ele>
        <time>2013-07-02T14:09:12Z</time>
      </trkpt>
      <trkpt lat="45.52911" lon="2.8209">
        <ele>1712</ele>
        <time>2013-07-02T14:09:20Z</time>
      </trkpt>
      <trkpt lat="45.52916" lon="2.82087">
        <ele>1711.6</ele>
        <time>2013-07-02T14:09:25Z</time>
      </trkpt>
      <trkpt lat="45.52921" lon="2.82085">
        <ele>1711</ele>
        <time>2013-07-02T14:09:30Z</time>
      </trkpt>
      <trkpt lat="45.52925" lon="2.82083">
        <ele>1710.5</ele>
        <time>2013-07-02T14:09:34Z</time>
      </trkpt>
      <trkpt lat="45.52928" lon="2.82077">
        <ele>1709</ele>
        <time>2013-07-02T14:09:41Z</time>
      </trkpt>
      <trkpt lat="45.52932" lon="2.82073">
        <ele>1707.4</ele>
        <time>2013-07-02T14:09:49Z</time>
      </trkpt>
      <trkpt lat="45.52936" lon="2.82069">
        <ele>1706.7</ele>
        <time>2013-07-02T14:09:55Z</time>
      </trkpt>
      <trkpt lat="45.5294" lon="2.82066">
        <ele>1706.1</ele>
        <time>2013-07-02T14:10:01Z</time>
      </trkpt>
      <trkpt lat="45.52944" lon="2.82063">
        <ele>1705.8</ele>
        <time>2013-07-02T14:10:08Z</time>
      </trkpt>
      <trkpt lat="45.52949" lon="2.82059">
        <ele>1705.8</ele>
        <time>2013-07-02T14:10:14Z</time>
      </trkpt>
      <trkpt lat="45.52953" lon="2.82055">
        <ele>1706</ele>
        <time>2013-07-02T14:10:19Z</time>
      </trkpt>
      <trkpt lat="45.52957" lon="2.82051">
        <ele>1706.1</ele>
        <time>2013-07-02T14:10:23Z</time>
      </trkpt>
      <trkpt lat="45.52961" lon="2.82047">
        <ele>1706.5</ele>
        <time>2013-07-02T14:10:28Z</time>
      </trkpt>
      <trkpt lat="45.52965" lon="2.82043">
        <ele>1707.4</ele>
        <time>2013-07-02T14:10:34Z</time>
      </trkpt>
      <trkpt lat="45.52969" lon="2.82042">
        <ele>1708.1</ele>
        <time>2013-07-02T14:10:41Z</time>
      </trkpt>
      <trkpt lat="45.52974" lon="2.8204">
        <ele>1708.7</ele>
        <time>2013-07-02T14:10:49Z</time>
      </trkpt>
      <trkpt lat="45.52978" lon="2.82038">
        <ele>1708.9</ele>
        <time>2013-07-02T14:11:00Z</time>
      </trkpt>
      <trkpt lat="45.52983" lon="2.82036">
        <ele>1709.4</ele>
        <time>2013-07-02T14:11:13Z</time>
      </trkpt>
      <trkpt lat="45.52987" lon="2.82038">
        <ele>1709.2</ele>
        <time>2013-07-02T14:11:23Z</time>
      </trkpt>
      <trkpt lat="45.52992" lon="2.82039">
        <ele>1708.7</ele>
        <time>2013-07-02T14:11:33Z</time>
      </trkpt>
      <trkpt lat="45.52996" lon="2.82037">
        <ele>1707.7</ele>
        <time>2013-07-02T14:11:43Z</time>
      </trkpt>
      <trkpt lat="45.52999" lon="2.82031">
        <ele>1706.9</ele>
        <time>2013-07-02T14:11:48Z</time>
      </trkpt>
      <trkpt lat="45.53003" lon="2.82027">
        <ele>1706.1</ele>
        <time>2013-07-02T14:11:53Z</time>
      </trkpt>
      <trkpt lat="45.53007" lon="2.82023">
        <ele>1704.4</ele>
        <time>2013-07-02T14:12:01Z</time>
      </trkpt>
      <trkpt lat="45.5301" lon="2.82018">
        <ele>1702.2</ele>
        <time>2013-07-02T14:12:09Z</time>
      </trkpt>
      <trkpt lat="45.53014" lon="2.82014">
        <ele>1699.1</ele>
        <time>2013-07-02T14:12:21Z</time>
      </trkpt>
      <trkpt lat="45.53019" lon="2.8201">
        <ele>1698.3</ele>
        <time>2013-07-02T14:12:25Z</time>
      </trkpt>
      <trkpt lat="45.53023" lon="2.82008">
        <ele>1696.9</ele>
        <time>2013-07-02T14:12:31Z</time>
      </trkpt>
      <trkpt lat="45.53028" lon="2.82005">
        <ele>1695.5</ele>
        <time>2013-07-02T14:12:37Z</time>
      </trkpt>
      <trkpt lat="45.53032" lon="2.82003">
        <ele>1694.5</ele>
        <time>2013-07-02T14:12:44Z</time>
      </trkpt>
      <trkpt lat="45.53029" lon="2.82009">
        <ele>1693.8</ele>
        <time>2013-07-02T14:13:04Z</time>
      </trkpt>
      <trkpt lat="45.5303" lon="2.82002">
        <ele>1693.3</ele>
        <time>2013-07-02T14:13:28Z</time>
      </trkpt>
      <trkpt lat="45.53031" lon="2.82008">
        <ele>1693.6</ele>
        <time>2013-07-02T14:14:09Z</time>
      </trkpt>
      <trkpt lat="45.53028" lon="2.82003">
        <ele>1692.9</ele>
        <time>2013-07-02T14:14:28Z</time>
      </trkpt>
      <trkpt lat="45.53024" lon="2.82007">
        <ele>1692.3</ele>
        <time>2013-07-02T14:14:44Z</time>
      </trkpt>
      <trkpt lat="45.53029" lon="2.82007">
        <ele>1691.8</ele>
        <time>2013-07-02T14:14:52Z</time>
      </trkpt>
      <trkpt lat="45.53033" lon="2.82004">
        <ele>1691.3</ele>
        <time>2013-07-02T14:14:58Z</time>
      </trkpt>
      <trkpt lat="45.53038" lon="2.82002">
        <ele>1690.7</ele>
        <time>2013-07-02T14:15:04Z</time>
      </trkpt>
      <trkpt lat="45.53042" lon="2.81999">
        <ele>1689.8</ele>
        <time>2013-07-02T14:15:14Z</time>
      </trkpt>
      <trkpt lat="45.53046" lon="2.81996">
        <ele>1688.7</ele>
        <time>2013-07-02T14:15:20Z</time>
      </trkpt>
      <trkpt lat="45.53051" lon="2.81995">
        <ele>1687.5</ele>
        <time>2013-07-02T14:15:26Z</time>
      </trkpt>
      <trkpt lat="45.53056" lon="2.81996">
        <ele>1686.6</ele>
        <time>2013-07-02T14:15:32Z</time>
      </trkpt>
      <trkpt lat="45.53061" lon="2.81997">
        <ele>1685.8</ele>
        <time>2013-07-02T14:15:39Z</time>
      </trkpt>
      <trkpt lat="45.53065" lon="2.81998">
        <ele>1684.9</ele>
        <time>2013-07-02T14:15:45Z</time>
      </trkpt>
      <trkpt lat="45.5307" lon="2.82">
        <ele>1684.2</ele>
        <time>2013-07-02T14:15:51Z</time>
      </trkpt>
      <trkpt lat="45.53075" lon="2.82">
        <ele>1682.9</ele>
        <time>2013-07-02T14:16:00Z</time>
      </trkpt>
      <trkpt lat="45.5308" lon="2.82001">
        <ele>1682.2</ele>
        <time>2013-07-02T14:16:06Z</time>
      </trkpt>
      <trkpt lat="45.53085" lon="2.82001">
        <ele>1681.8</ele>
        <time>2013-07-02T14:16:12Z</time>
      </trkpt>
      <trkpt lat="45.5309" lon="2.82">
        <ele>1681.2</ele>
        <time>2013-07-02T14:16:18Z</time>
      </trkpt>
      <trkpt lat="45.53095" lon="2.82">
        <ele>1680.4</ele>
        <time>2013-07-02T14:16:24Z</time>
      </trkpt>
      <trkpt lat="45.531" lon="2.82002">
        <ele>1679.9</ele>
        <time>2013-07-02T14:16:29Z</time>
      </trkpt>
      <trkpt lat="45.53105" lon="2.82002">
        <ele>1679.4</ele>
        <time>2013-07-02T14:16:34Z</time>
      </trkpt>
      <trkpt lat="45.5311" lon="2.82003">
        <ele>1678.8</ele>
        <time>2013-07-02T14:16:39Z</time>
      </trkpt>
      <trkpt lat="45.53114" lon="2.82005">
        <ele>1678.3</ele>
        <time>2013-07-02T14:16:44Z</time>
      </trkpt>
      <trkpt lat="45.53119" lon="2.82004">
        <ele>1677.8</ele>
        <time>2013-07-02T14:16:49Z</time>
      </trkpt>
      <trkpt lat="45.53124" lon="2.82004">
        <ele>1677.3</ele>
        <time>2013-07-02T14:16:53Z</time>
      </trkpt>
      <trkpt lat="45.53129" lon="2.82004">
        <ele>1676.6</ele>
        <time>2013-07-02T14:16:59Z</time>
      </trkpt>
      <trkpt lat="45.53135" lon="2.82004">
        <ele>1675.8</ele>
        <time>2013-07-02T14:17:05Z</time>
      </trkpt>
      <trkpt lat="45.53139" lon="2.82001">
        <ele>1675</ele>
        <time>2013-07-02T14:17:12Z</time>
      </trkpt>
      <trkpt lat="45.53145" lon="2.82003">
        <ele>1674.1</ele>
        <time>2013-07-02T14:17:19Z</time>
      </trkpt>
      <trkpt lat="45.53149" lon="2.82005">
        <ele>1673.5</ele>
        <time>2013-07-02T14:17:24Z</time>
      </trkpt>
      <trkpt lat="45.53154" lon="2.82007">
        <ele>1672.8</ele>
        <time>2013-07-02T14:17:30Z</time>
      </trkpt>
      <trkpt lat="45.53159" lon="2.82009">
        <ele>1671.8</ele>
        <time>2013-07-02T14:17:37Z</time>
      </trkpt>
      <trkpt lat="45.53163" lon="2.82012">
        <ele>1671.1</ele>
        <time>2013-07-02T14:17:44Z</time>
      </trkpt>
      <trkpt lat="45.53167" lon="2.82016">
        <ele>1670.4</ele>
        <time>2013-07-02T14:17:52Z</time>
      </trkpt>
      <trkpt lat="45.53172" lon="2.82017">
        <ele>1669.8</ele>
        <time>2013-07-02T14:17:58Z</time>
      </trkpt>
      <trkpt lat="45.53175" lon="2.82013">
        <ele>1668.9</ele>
        <time>2013-07-02T14:18:03Z</time>
      </trkpt>
      <trkpt lat="45.53175" lon="2.82006">
        <ele>1668.2</ele>
        <time>2013-07-02T14:18:08Z</time>
      </trkpt>
      <trkpt lat="45.53174" lon="2.81999">
        <ele>1667.6</ele>
        <time>2013-07-02T14:18:13Z</time>
      </trkpt>
      <trkpt lat="45.53176" lon="2.81992">
        <ele>1666.8</ele>
        <time>2013-07-02T14:18:20Z</time>
      </trkpt>
      <trkpt lat="45.53181" lon="2.81989">
        <ele>1665.5</ele>
        <time>2013-07-02T14:18:30Z</time>
      </trkpt>
      <trkpt lat="45.53185" lon="2.81993">
        <ele>1664.4</ele>
        <time>2013-07-02T14:18:37Z</time>
      </trkpt>
      <trkpt lat="45.5319" lon="2.81996">
        <ele>1663.4</ele>
        <time>2013-07-02T14:18:42Z</time>
      </trkpt>
      <trkpt lat="45.53194" lon="2.82">
        <ele>1662.5</ele>
        <time>2013-07-02T14:18:47Z</time>
      </trkpt>
      <trkpt lat="45.53198" lon="2.82004">
        <ele>1661.7</ele>
        <time>2013-07-02T14:18:52Z</time>
      </trkpt>
      <trkpt lat="45.53202" lon="2.82009">
        <ele>1660.8</ele>
        <time>2013-07-02T14:18:57Z</time>
      </trkpt>
      <trkpt lat="45.53207" lon="2.82014">
        <ele>1660.1</ele>
        <time>2013-07-02T14:19:01Z</time>
      </trkpt>
      <trkpt lat="45.53211" lon="2.82019">
        <ele>1659.2</ele>
        <time>2013-07-02T14:19:06Z</time>
      </trkpt>
      <trkpt lat="45.53215" lon="2.82023">
        <ele>1658.9</ele>
        <time>2013-07-02T14:19:11Z</time>
      </trkpt>
      <trkpt lat="45.53217" lon="2.82029">
        <ele>1658.5</ele>
        <time>2013-07-02T14:19:16Z</time>
      </trkpt>
      <trkpt lat="45.5322" lon="2.82036">
        <ele>1658</ele>
        <time>2013-07-02T14:19:21Z</time>
      </trkpt>
      <trkpt lat="45.53225" lon="2.8204">
        <ele>1657.5</ele>
        <time>2013-07-02T14:19:26Z</time>
      </trkpt>
      <trkpt lat="45.53228" lon="2.82046">
        <ele>1657.2</ele>
        <time>2013-07-02T14:19:31Z</time>
      </trkpt>
      <trkpt lat="45.5323" lon="2.82053">
        <ele>1657</ele>
        <time>2013-07-02T14:19:35Z</time>
      </trkpt>
      <trkpt lat="45.53231" lon="2.8206">
        <ele>1656.8</ele>
        <time>2013-07-02T14:19:39Z</time>
      </trkpt>
      <trkpt lat="45.53232" lon="2.82066">
        <ele>1656.8</ele>
        <time>2013-07-02T14:19:43Z</time>
      </trkpt>
      <trkpt lat="45.53232" lon="2.82074">
        <ele>1656.7</ele>
        <time>2013-07-02T14:19:46Z</time>
      </trkpt>
      <trkpt lat="45.53233" lon="2.82082">
        <ele>1656.5</ele>
        <time>2013-07-02T14:19:51Z</time>
      </trkpt>
      <trkpt lat="45.53233" lon="2.82088">
        <ele>1656.2</ele>
        <time>2013-07-02T14:19:55Z</time>
      </trkpt>
      <trkpt lat="45.53234" lon="2.82095">
        <ele>1655.6</ele>
        <time>2013-07-02T14:20:00Z</time>
      </trkpt>
      <trkpt lat="45.53235" lon="2.82103">
        <ele>1654.8</ele>
        <time>2013-07-02T14:20:05Z</time>
      </trkpt>
      <trkpt lat="45.53237" lon="2.8211">
        <ele>1654.3</ele>
        <time>2013-07-02T14:20:10Z</time>
      </trkpt>
      <trkpt lat="45.53238" lon="2.82116">
        <ele>1653.7</ele>
        <time>2013-07-02T14:20:14Z</time>
      </trkpt>
      <trkpt lat="45.53241" lon="2.82122">
        <ele>1653.1</ele>
        <time>2013-07-02T14:20:19Z</time>
      </trkpt>
      <trkpt lat="45.53243" lon="2.82128">
        <ele>1652.7</ele>
        <time>2013-07-02T14:20:23Z</time>
      </trkpt>
      <trkpt lat="45.53246" lon="2.82133">
        <ele>1651.8</ele>
        <time>2013-07-02T14:20:28Z</time>
      </trkpt>
      <trkpt lat="45.53248" lon="2.8214">
        <ele>1650.6</ele>
        <time>2013-07-02T14:20:34Z</time>
      </trkpt>
      <trkpt lat="45.5325" lon="2.82146">
        <ele>1649.9</ele>
        <time>2013-07-02T14:20:38Z</time>
      </trkpt>
      <trkpt lat="45.53252" lon="2.82152">
        <ele>1648.9</ele>
        <time>2013-07-02T14:20:44Z</time>
      </trkpt>
      <trkpt lat="45.53255" lon="2.82158">
        <ele>1648</ele>
        <time>2013-07-02T14:20:49Z</time>
      </trkpt>
      <trkpt lat="45.53258" lon="2.82163">
        <ele>1647.4</ele>
        <time>2013-07-02T14:20:53Z</time>
      </trkpt>
      <trkpt lat="45.53261" lon="2.82168">
        <ele>1646.6</ele>
        <time>2013-07-02T14:20:57Z</time>
      </trkpt>
      <trkpt lat="45.53263" lon="2.82175">
        <ele>1645.5</ele>
        <time>2013-07-02T14:21:03Z</time>
      </trkpt>
      <trkpt lat="45.53264" lon="2.82182">
        <ele>1644.5</ele>
        <time>2013-07-02T14:21:10Z</time>
      </trkpt>
      <trkpt lat="45.53267" lon="2.82187">
        <ele>1643.7</ele>
        <time>2013-07-02T14:21:15Z</time>
      </trkpt>
      <trkpt lat="45.5327" lon="2.82192">
        <ele>1642.9</ele>
        <time>2013-07-02T14:21:21Z</time>
      </trkpt>
      <trkpt lat="45.53272" lon="2.82199">
        <ele>1642.1</ele>
        <time>2013-07-02T14:21:28Z</time>
      </trkpt>
      <trkpt lat="45.53273" lon="2.82207">
        <ele>1641.3</ele>
        <time>2013-07-02T14:21:34Z</time>
      </trkpt>
      <trkpt lat="45.53274" lon="2.82214">
        <ele>1640.6</ele>
        <time>2013-07-02T14:21:39Z</time>
      </trkpt>
      <trkpt lat="45.53276" lon="2.82221">
        <ele>1640.3</ele>
        <time>2013-07-02T14:21:43Z</time>
      </trkpt>
      <trkpt lat="45.53278" lon="2.82227">
        <ele>1639.9</ele>
        <time>2013-07-02T14:21:48Z</time>
      </trkpt>
      <trkpt lat="45.5328" lon="2.82233">
        <ele>1639.4</ele>
        <time>2013-07-02T14:21:53Z</time>
      </trkpt>
      <trkpt lat="45.53283" lon="2.82239">
        <ele>1638.9</ele>
        <time>2013-07-02T14:21:58Z</time>
      </trkpt>
      <trkpt lat="45.53285" lon="2.82244">
        <ele>1638.4</ele>
        <time>2013-07-02T14:22:03Z</time>
      </trkpt>
      <trkpt lat="45.53289" lon="2.82249">
        <ele>1637.4</ele>
        <time>2013-07-02T14:22:09Z</time>
      </trkpt>
      <trkpt lat="45.53291" lon="2.82256">
        <ele>1636.4</ele>
        <time>2013-07-02T14:22:15Z</time>
      </trkpt>
      <trkpt lat="45.53293" lon="2.82262">
        <ele>1635.5</ele>
        <time>2013-07-02T14:22:20Z</time>
      </trkpt>
      <trkpt lat="45.53293" lon="2.82269">
        <ele>1634.3</ele>
        <time>2013-07-02T14:22:25Z</time>
      </trkpt>
      <trkpt lat="45.53296" lon="2.82276">
        <ele>1633.4</ele>
        <time>2013-07-02T14:22:30Z</time>
      </trkpt>
      <trkpt lat="45.53299" lon="2.82281">
        <ele>1632.8</ele>
        <time>2013-07-02T14:22:34Z</time>
      </trkpt>
      <trkpt lat="45.53301" lon="2.82288">
        <ele>1632.2</ele>
        <time>2013-07-02T14:22:39Z</time>
      </trkpt>
      <trkpt lat="45.53302" lon="2.82295">
        <ele>1631.6</ele>
        <time>2013-07-02T14:22:47Z</time>
      </trkpt>
      <trkpt lat="45.53303" lon="2.82302">
        <ele>1631.5</ele>
        <time>2013-07-02T14:22:52Z</time>
      </trkpt>
      <trkpt lat="45.53304" lon="2.82309">
        <ele>1631.1</ele>
        <time>2013-07-02T14:22:59Z</time>
      </trkpt>
      <trkpt lat="45.53307" lon="2.82314">
        <ele>1631.3</ele>
        <time>2013-07-02T14:23:08Z</time>
      </trkpt>
      <trkpt lat="45.53311" lon="2.82319">
        <ele>1631.5</ele>
        <time>2013-07-02T14:23:14Z</time>
      </trkpt>
      <trkpt lat="45.53313" lon="2.82324">
        <ele>1631.3</ele>
        <time>2013-07-02T14:23:21Z</time>
      </trkpt>
      <trkpt lat="45.53316" lon="2.8233">
        <ele>1630.9</ele>
        <time>2013-07-02T14:23:33Z</time>
      </trkpt>
      <trkpt lat="45.5332" lon="2.82332">
        <ele>1630.4</ele>
        <time>2013-07-02T14:23:59Z</time>
      </trkpt>
      <trkpt lat="45.53324" lon="2.82335">
        <ele>1629.2</ele>
        <time>2013-07-02T14:24:14Z</time>
      </trkpt>
      <trkpt lat="45.53329" lon="2.82333">
        <ele>1628</ele>
        <time>2013-07-02T14:24:28Z</time>
      </trkpt>
      <trkpt lat="45.53334" lon="2.82336">
        <ele>1627.4</ele>
        <time>2013-07-02T14:24:33Z</time>
      </trkpt>
      <trkpt lat="45.53339" lon="2.82337">
        <ele>1626.6</ele>
        <time>2013-07-02T14:24:40Z</time>
      </trkpt>
      <trkpt lat="45.53344" lon="2.82338">
        <ele>1625.5</ele>
        <time>2013-07-02T14:24:48Z</time>
      </trkpt>
      <trkpt lat="45.53349" lon="2.8234">
        <ele>1624.2</ele>
        <time>2013-07-02T14:24:57Z</time>
      </trkpt>
      <trkpt lat="45.53354" lon="2.82341">
        <ele>1622.4</ele>
        <time>2013-07-02T14:25:07Z</time>
      </trkpt>
      <trkpt lat="45.53358" lon="2.82342">
        <ele>1620.8</ele>
        <time>2013-07-02T14:25:19Z</time>
      </trkpt>
      <trkpt lat="45.53363" lon="2.82344">
        <ele>1620</ele>
        <time>2013-07-02T14:25:26Z</time>
      </trkpt>
      <trkpt lat="45.53368" lon="2.82346">
        <ele>1619.2</ele>
        <time>2013-07-02T14:25:32Z</time>
      </trkpt>
      <trkpt lat="45.53372" lon="2.82347">
        <ele>1618.2</ele>
        <time>2013-07-02T14:25:38Z</time>
      </trkpt>
      <trkpt lat="45.53377" lon="2.82349">
        <ele>1617.4</ele>
        <time>2013-07-02T14:25:45Z</time>
      </trkpt>
      <trkpt lat="45.53382" lon="2.82349">
        <ele>1616</ele>
        <time>2013-07-02T14:25:53Z</time>
      </trkpt>
      <trkpt lat="45.53386" lon="2.82351">
        <ele>1614.7</ele>
        <time>2013-07-02T14:26:02Z</time>
      </trkpt>
      <trkpt lat="45.53391" lon="2.82353">
        <ele>1613.6</ele>
        <time>2013-07-02T14:26:08Z</time>
      </trkpt>
      <trkpt lat="45.53396" lon="2.82354">
        <ele>1612.4</ele>
        <time>2013-07-02T14:26:14Z</time>
      </trkpt>
      <trkpt lat="45.53401" lon="2.82354">
        <ele>1611.4</ele>
        <time>2013-07-02T14:26:19Z</time>
      </trkpt>
      <trkpt lat="45.53405" lon="2.82357">
        <ele>1609.9</ele>
        <time>2013-07-02T14:26:26Z</time>
      </trkpt>
      <trkpt lat="45.53409" lon="2.8236">
        <ele>1609</ele>
        <time>2013-07-02T14:26:32Z</time>
      </trkpt>
      <trkpt lat="45.53415" lon="2.82361">
        <ele>1607.8</ele>
        <time>2013-07-02T14:26:38Z</time>
      </trkpt>
      <trkpt lat="45.53419" lon="2.82363">
        <ele>1606.4</ele>
        <time>2013-07-02T14:26:44Z</time>
      </trkpt>
      <trkpt lat="45.53425" lon="2.82364">
        <ele>1605.4</ele>
        <time>2013-07-02T14:26:49Z</time>
      </trkpt>
      <trkpt lat="45.53429" lon="2.82367">
        <ele>1604</ele>
        <time>2013-07-02T14:26:55Z</time>
      </trkpt>
      <trkpt lat="45.53435" lon="2.82368">
        <ele>1602.1</ele>
        <time>2013-07-02T14:27:01Z</time>
      </trkpt>
      <trkpt lat="45.5344" lon="2.8237">
        <ele>1600.9</ele>
        <time>2013-07-02T14:27:07Z</time>
      </trkpt>
      <trkpt lat="45.53445" lon="2.82369">
        <ele>1599.9</ele>
        <time>2013-07-02T14:27:14Z</time>
      </trkpt>
      <trkpt lat="45.53449" lon="2.8237">
        <ele>1598.5</ele>
        <time>2013-07-02T14:27:22Z</time>
      </trkpt>
      <trkpt lat="45.53454" lon="2.82372">
        <ele>1597.6</ele>
        <time>2013-07-02T14:27:28Z</time>
      </trkpt>
      <trkpt lat="45.53458" lon="2.82375">
        <ele>1596.3</ele>
        <time>2013-07-02T14:27:35Z</time>
      </trkpt>
      <trkpt lat="45.53463" lon="2.82375">
        <ele>1594.5</ele>
        <time>2013-07-02T14:27:44Z</time>
      </trkpt>
      <trkpt lat="45.53467" lon="2.82378">
        <ele>1593.5</ele>
        <time>2013-07-02T14:27:51Z</time>
      </trkpt>
      <trkpt lat="45.53472" lon="2.82378">
        <ele>1592.4</ele>
        <time>2013-07-02T14:28:01Z</time>
      </trkpt>
      <trkpt lat="45.53475" lon="2.82383">
        <ele>1591.2</ele>
        <time>2013-07-02T14:28:09Z</time>
      </trkpt>
      <trkpt lat="45.5348" lon="2.82381">
        <ele>1589.6</ele>
        <time>2013-07-02T14:28:20Z</time>
      </trkpt>
      <trkpt lat="45.53485" lon="2.82382">
        <ele>1588.9</ele>
        <time>2013-07-02T14:28:27Z</time>
      </trkpt>
      <trkpt lat="45.5349" lon="2.82381">
        <ele>1587.9</ele>
        <time>2013-07-02T14:28:38Z</time>
      </trkpt>
      <trkpt lat="45.53495" lon="2.82382">
        <ele>1587.4</ele>
        <time>2013-07-02T14:28:43Z</time>
      </trkpt>
      <trkpt lat="45.53499" lon="2.82383">
        <ele>1587</ele>
        <time>2013-07-02T14:28:49Z</time>
      </trkpt>
      <trkpt lat="45.53504" lon="2.82383">
        <ele>1586.3</ele>
        <time>2013-07-02T14:28:55Z</time>
      </trkpt>
      <trkpt lat="45.53509" lon="2.82382">
        <ele>1584.9</ele>
        <time>2013-07-02T14:29:03Z</time>
      </trkpt>
      <trkpt lat="45.53513" lon="2.82382">
        <ele>1583.9</ele>
        <time>2013-07-02T14:29:09Z</time>
      </trkpt>
      <trkpt lat="45.53518" lon="2.82382">
        <ele>1583</ele>
        <time>2013-07-02T14:29:14Z</time>
      </trkpt>
      <trkpt lat="45.53523" lon="2.8238">
        <ele>1580.8</ele>
        <time>2013-07-02T14:29:24Z</time>
      </trkpt>
      <trkpt lat="45.53527" lon="2.82377">
        <ele>1579.8</ele>
        <time>2013-07-02T14:29:36Z</time>
      </trkpt>
      <trkpt lat="45.53522" lon="2.82375">
        <ele>1577.9</ele>
        <time>2013-07-02T14:29:51Z</time>
      </trkpt>
      <trkpt lat="45.53517" lon="2.82375">
        <ele>1577.2</ele>
        <time>2013-07-02T14:29:57Z</time>
      </trkpt>
      <trkpt lat="45.53512" lon="2.82375">
        <ele>1577</ele>
        <time>2013-07-02T14:30:02Z</time>
      </trkpt>
      <trkpt lat="45.53508" lon="2.82376">
        <ele>1577.1</ele>
        <time>2013-07-02T14:30:07Z</time>
      </trkpt>
      <trkpt lat="45.53503" lon="2.82378">
        <ele>1577.2</ele>
        <time>2013-07-02T14:30:10Z</time>
      </trkpt>
      <trkpt lat="45.53498" lon="2.82378">
        <ele>1577.5</ele>
        <time>2013-07-02T14:30:17Z</time>
      </trkpt>
      <trkpt lat="45.53496" lon="2.82372">
        <ele>1578</ele>
        <time>2013-07-02T14:30:23Z</time>
      </trkpt>
      <trkpt lat="45.53492" lon="2.82367">
        <ele>1578.9</ele>
        <time>2013-07-02T14:30:30Z</time>
      </trkpt>
      <trkpt lat="45.5349" lon="2.82361">
        <ele>1578.9</ele>
        <time>2013-07-02T14:30:42Z</time>
      </trkpt>
      <trkpt lat="45.53491" lon="2.82354">
        <ele>1578.3</ele>
        <time>2013-07-02T14:31:09Z</time>
      </trkpt>
      <trkpt lat="45.53491" lon="2.82348">
        <ele>1578.5</ele>
        <time>2013-07-02T14:31:16Z</time>
      </trkpt>
      <trkpt lat="45.53488" lon="2.82342">
        <ele>1578.2</ele>
        <time>2013-07-02T14:31:28Z</time>
      </trkpt>
      <trkpt lat="45.5349" lon="2.82348">
        <ele>1576.5</ele>
        <time>2013-07-02T14:32:07Z</time>
      </trkpt>
      <trkpt lat="45.53491" lon="2.82354">
        <ele>1576.7</ele>
        <time>2013-07-02T14:32:15Z</time>
      </trkpt>
      <trkpt lat="45.53495" lon="2.82359">
        <ele>1576.7</ele>
        <time>2013-07-02T14:32:31Z</time>
      </trkpt>
      <trkpt lat="45.53491" lon="2.82355">
        <ele>1576.7</ele>
        <time>2013-07-02T14:32:49Z</time>
      </trkpt>
      <trkpt lat="45.5349" lon="2.82349">
        <ele>1576.8</ele>
        <time>2013-07-02T14:32:54Z</time>
      </trkpt>
      <trkpt lat="45.53491" lon="2.82342">
        <ele>1576.6</ele>
        <time>2013-07-02T14:33:02Z</time>
      </trkpt>
      <trkpt lat="45.53494" lon="2.82337">
        <ele>1576.9</ele>
        <time>2013-07-02T14:33:19Z</time>
      </trkpt>
      <trkpt lat="45.53499" lon="2.82335">
        <ele>1577.8</ele>
        <time>2013-07-02T14:33:28Z</time>
      </trkpt>
      <trkpt lat="45.53503" lon="2.82332">
        <ele>1577.7</ele>
        <time>2013-07-02T14:33:35Z</time>
      </trkpt>
      <trkpt lat="45.53507" lon="2.8233">
        <ele>1577.4</ele>
        <time>2013-07-02T14:33:43Z</time>
      </trkpt>
      <trkpt lat="45.53512" lon="2.82327">
        <ele>1577</ele>
        <time>2013-07-02T14:33:50Z</time>
      </trkpt>
      <trkpt lat="45.53515" lon="2.82322">
        <ele>1577.3</ele>
        <time>2013-07-02T14:33:58Z</time>
      </trkpt>
      <trkpt lat="45.53518" lon="2.82317">
        <ele>1576.9</ele>
        <time>2013-07-02T14:34:07Z</time>
      </trkpt>
      <trkpt lat="45.53523" lon="2.82316">
        <ele>1571.1</ele>
        <time>2013-07-02T14:34:45Z</time>
      </trkpt>
      <trkpt lat="45.53528" lon="2.82317">
        <ele>1570.2</ele>
        <time>2013-07-02T14:34:51Z</time>
      </trkpt>
      <trkpt lat="45.53532" lon="2.82312">
        <ele>1568.8</ele>
        <time>2013-07-02T14:34:57Z</time>
      </trkpt>
      <trkpt lat="45.53535" lon="2.82307">
        <ele>1567.2</ele>
        <time>2013-07-02T14:35:04Z</time>
      </trkpt>
      <trkpt lat="45.5354" lon="2.82305">
        <ele>1565.9</ele>
        <time>2013-07-02T14:35:13Z</time>
      </trkpt>
      <trkpt lat="45.53543" lon="2.823">
        <ele>1565.3</ele>
        <time>2013-07-02T14:35:19Z</time>
      </trkpt>
      <trkpt lat="45.53544" lon="2.82293">
        <ele>1564.7</ele>
        <time>2013-07-02T14:35:26Z</time>
      </trkpt>
      <trkpt lat="45.53549" lon="2.82292">
        <ele>1564.2</ele>
        <time>2013-07-02T14:35:34Z</time>
      </trkpt>
      <trkpt lat="45.53552" lon="2.82288">
        <ele>1562.9</ele>
        <time>2013-07-02T14:35:48Z</time>
      </trkpt>
      <trkpt lat="45.53557" lon="2.82286">
        <ele>1562.8</ele>
        <time>2013-07-02T14:35:58Z</time>
      </trkpt>
      <trkpt lat="45.53561" lon="2.82285">
        <ele>1561.7</ele>
        <time>2013-07-02T14:36:06Z</time>
      </trkpt>
      <trkpt lat="45.53564" lon="2.82279">
        <ele>1560.5</ele>
        <time>2013-07-02T14:36:13Z</time>
      </trkpt>
      <trkpt lat="45.53566" lon="2.82273">
        <ele>1559.6</ele>
        <time>2013-07-02T14:36:18Z</time>
      </trkpt>
      <trkpt lat="45.53569" lon="2.82267">
        <ele>1558.3</ele>
        <time>2013-07-02T14:36:26Z</time>
      </trkpt>
      <trkpt lat="45.5357" lon="2.82261">
        <ele>1556.5</ele>
        <time>2013-07-02T14:36:32Z</time>
      </trkpt>
      <trkpt lat="45.53571" lon="2.82255">
        <ele>1554.8</ele>
        <time>2013-07-02T14:36:39Z</time>
      </trkpt>
      <trkpt lat="45.53569" lon="2.82248">
        <ele>1552.5</ele>
        <time>2013-07-02T14:36:51Z</time>
      </trkpt>
      <trkpt lat="45.53569" lon="2.8224">
        <ele>1549.1</ele>
        <time>2013-07-02T14:37:13Z</time>
      </trkpt>
      <trkpt lat="45.5357" lon="2.82234">
        <ele>1544.7</ele>
        <time>2013-07-02T14:37:22Z</time>
      </trkpt>
      <trkpt lat="45.53575" lon="2.8223">
        <ele>1542.3</ele>
        <time>2013-07-02T14:37:29Z</time>
      </trkpt>
      <trkpt lat="45.53579" lon="2.82226">
        <ele>1540.4</ele>
        <time>2013-07-02T14:37:34Z</time>
      </trkpt>
      <trkpt lat="45.53582" lon="2.82221">
        <ele>1538.6</ele>
        <time>2013-07-02T14:37:40Z</time>
      </trkpt>
      <trkpt lat="45.53587" lon="2.82218">
        <ele>1537.5</ele>
        <time>2013-07-02T14:37:47Z</time>
      </trkpt>
      <trkpt lat="45.5359" lon="2.82213">
        <ele>1536.9</ele>
        <time>2013-07-02T14:37:54Z</time>
      </trkpt>
      <trkpt lat="45.53593" lon="2.82207">
        <ele>1535.7</ele>
        <time>2013-07-02T14:38:02Z</time>
      </trkpt>
      <trkpt lat="45.53597" lon="2.82203">
        <ele>1534.9</ele>
        <time>2013-07-02T14:38:10Z</time>
      </trkpt>
      <trkpt lat="45.53601" lon="2.82201">
        <ele>1533.7</ele>
        <time>2013-07-02T14:38:19Z</time>
      </trkpt>
      <trkpt lat="45.53605" lon="2.82197">
        <ele>1533.1</ele>
        <time>2013-07-02T14:38:25Z</time>
      </trkpt>
      <trkpt lat="45.53609" lon="2.82193">
        <ele>1532.6</ele>
        <time>2013-07-02T14:38:32Z</time>
      </trkpt>
      <trkpt lat="45.53613" lon="2.82188">
        <ele>1531.6</ele>
        <time>2013-07-02T14:38:39Z</time>
      </trkpt>
      <trkpt lat="45.53613" lon="2.82181">
        <ele>1530.6</ele>
        <time>2013-07-02T14:38:46Z</time>
      </trkpt>
      <trkpt lat="45.53613" lon="2.82174">
        <ele>1529.7</ele>
        <time>2013-07-02T14:38:52Z</time>
      </trkpt>
      <trkpt lat="45.53616" lon="2.82169">
        <ele>1528.7</ele>
        <time>2013-07-02T14:39:03Z</time>
      </trkpt>
      <trkpt lat="45.53619" lon="2.82164">
        <ele>1527.8</ele>
        <time>2013-07-02T14:39:09Z</time>
      </trkpt>
      <trkpt lat="45.5362" lon="2.82157">
        <ele>1525.9</ele>
        <time>2013-07-02T14:39:23Z</time>
      </trkpt>
      <trkpt lat="45.53621" lon="2.82151">
        <ele>1523.9</ele>
        <time>2013-07-02T14:39:33Z</time>
      </trkpt>
      <trkpt lat="45.53622" lon="2.82145">
        <ele>1521.7</ele>
        <time>2013-07-02T14:39:39Z</time>
      </trkpt>
      <trkpt lat="45.53627" lon="2.82142">
        <ele>1518.2</ele>
        <time>2013-07-02T14:40:00Z</time>
      </trkpt>
      <trkpt lat="45.53632" lon="2.82142">
        <ele>1516.4</ele>
        <time>2013-07-02T14:40:11Z</time>
      </trkpt>
      <trkpt lat="45.53637" lon="2.82139">
        <ele>1513.6</ele>
        <time>2013-07-02T14:40:20Z</time>
      </trkpt>
      <trkpt lat="45.53642" lon="2.82135">
        <ele>1511.9</ele>
        <time>2013-07-02T14:40:26Z</time>
      </trkpt>
      <trkpt lat="45.53646" lon="2.82132">
        <ele>1506.4</ele>
        <time>2013-07-02T14:40:40Z</time>
      </trkpt>
      <trkpt lat="45.5365" lon="2.82132">
        <ele>1502.5</ele>
        <time>2013-07-02T14:41:02Z</time>
      </trkpt>
      <trkpt lat="45.53656" lon="2.82132">
        <ele>1500</ele>
        <time>2013-07-02T14:41:09Z</time>
      </trkpt>
      <trkpt lat="45.53661" lon="2.82132">
        <ele>1498</ele>
        <time>2013-07-02T14:41:15Z</time>
      </trkpt>
      <trkpt lat="45.53664" lon="2.82128">
        <ele>1496.3</ele>
        <time>2013-07-02T14:41:22Z</time>
      </trkpt>
      <trkpt lat="45.53669" lon="2.82125">
        <ele>1494.4</ele>
        <time>2013-07-02T14:41:30Z</time>
      </trkpt>
      <trkpt lat="45.53674" lon="2.82127">
        <ele>1493.2</ele>
        <time>2013-07-02T14:41:37Z</time>
      </trkpt>
      <trkpt lat="45.53679" lon="2.82124">
        <ele>1491.2</ele>
        <time>2013-07-02T14:41:44Z</time>
      </trkpt>
      <trkpt lat="45.53684" lon="2.82119">
        <ele>1488.4</ele>
        <time>2013-07-02T14:41:51Z</time>
      </trkpt>
      <trkpt lat="45.53688" lon="2.82115">
        <ele>1486.9</ele>
        <time>2013-07-02T14:41:58Z</time>
      </trkpt>
      <trkpt lat="45.53693" lon="2.82113">
        <ele>1485.7</ele>
        <time>2013-07-02T14:42:03Z</time>
      </trkpt>
      <trkpt lat="45.53698" lon="2.82112">
        <ele>1484.5</ele>
        <time>2013-07-02T14:42:09Z</time>
      </trkpt>
      <trkpt lat="45.53703" lon="2.82111">
        <ele>1482.5</ele>
        <time>2013-07-02T14:42:16Z</time>
      </trkpt>
      <trkpt lat="45.53707" lon="2.82112">
        <ele>1481.2</ele>
        <time>2013-07-02T14:42:22Z</time>
      </trkpt>
      <trkpt lat="45.53712" lon="2.8211">
        <ele>1478.8</ele>
        <time>2013-07-02T14:42:31Z</time>
      </trkpt>
      <trkpt lat="45.53717" lon="2.82108">
        <ele>1475.9</ele>
        <time>2013-07-02T14:42:40Z</time>
      </trkpt>
      <trkpt lat="45.5372" lon="2.82103">
        <ele>1474.5</ele>
        <time>2013-07-02T14:42:45Z</time>
      </trkpt>
      <trkpt lat="45.53723" lon="2.82099">
        <ele>1472.9</ele>
        <time>2013-07-02T14:42:50Z</time>
      </trkpt>
      <trkpt lat="45.53727" lon="2.82095">
        <ele>1471.9</ele>
        <time>2013-07-02T14:42:55Z</time>
      </trkpt>
      <trkpt lat="45.53731" lon="2.82091">
        <ele>1470.2</ele>
        <time>2013-07-02T14:43:00Z</time>
      </trkpt>
      <trkpt lat="45.53735" lon="2.82087">
        <ele>1469.4</ele>
        <time>2013-07-02T14:43:06Z</time>
      </trkpt>
      <trkpt lat="45.5374" lon="2.82085">
        <ele>1469.3</ele>
        <time>2013-07-02T14:43:11Z</time>
      </trkpt>
      <trkpt lat="45.53744" lon="2.82083">
        <ele>1469.7</ele>
        <time>2013-07-02T14:43:21Z</time>
      </trkpt>
      <trkpt lat="45.53747" lon="2.82077">
        <ele>1470.5</ele>
        <time>2013-07-02T14:43:25Z</time>
      </trkpt>
      <trkpt lat="45.53751" lon="2.82072">
        <ele>1471.1</ele>
        <time>2013-07-02T14:43:30Z</time>
      </trkpt>
      <trkpt lat="45.53746" lon="2.8207">
        <ele>1471.1</ele>
        <time>2013-07-02T14:43:41Z</time>
      </trkpt>
      <trkpt lat="45.53742" lon="2.82071">
        <ele>1470.8</ele>
        <time>2013-07-02T14:43:57Z</time>
      </trkpt>
      <trkpt lat="45.53746" lon="2.82072">
        <ele>1467.8</ele>
        <time>2013-07-02T14:44:14Z</time>
      </trkpt>
      <trkpt lat="45.53751" lon="2.8207">
        <ele>1466.2</ele>
        <time>2013-07-02T14:44:20Z</time>
      </trkpt>
      <trkpt lat="45.53756" lon="2.82067">
        <ele>1465.3</ele>
        <time>2013-07-02T14:44:25Z</time>
      </trkpt>
      <trkpt lat="45.5376" lon="2.82066">
        <ele>1463.6</ele>
        <time>2013-07-02T14:44:41Z</time>
      </trkpt>
      <trkpt lat="45.53763" lon="2.8206">
        <ele>1460.6</ele>
        <time>2013-07-02T14:45:00Z</time>
      </trkpt>
      <trkpt lat="45.53767" lon="2.82063">
        <ele>1458.6</ele>
        <time>2013-07-02T14:45:17Z</time>
      </trkpt>
      <trkpt lat="45.53772" lon="2.82065">
        <ele>1458.1</ele>
        <time>2013-07-02T14:45:26Z</time>
      </trkpt>
      <trkpt lat="45.53777" lon="2.82066">
        <ele>1457.3</ele>
        <time>2013-07-02T14:45:32Z</time>
      </trkpt>
      <trkpt lat="45.53782" lon="2.82068">
        <ele>1456.4</ele>
        <time>2013-07-02T14:45:39Z</time>
      </trkpt>
      <trkpt lat="45.53786" lon="2.82071">
        <ele>1454.9</ele>
        <time>2013-07-02T14:45:49Z</time>
      </trkpt>
      <trkpt lat="45.53791" lon="2.82074">
        <ele>1453.4</ele>
        <time>2013-07-02T14:45:59Z</time>
      </trkpt>
      <trkpt lat="45.53795" lon="2.82073">
        <ele>1453.1</ele>
        <time>2013-07-02T14:46:07Z</time>
      </trkpt>
      <trkpt lat="45.53799" lon="2.82078">
        <ele>1452.4</ele>
        <time>2013-07-02T14:46:22Z</time>
      </trkpt>
      <trkpt lat="45.53803" lon="2.82075">
        <ele>1450.4</ele>
        <time>2013-07-02T14:46:36Z</time>
      </trkpt>
      <trkpt lat="45.53808" lon="2.82077">
        <ele>1449.2</ele>
        <time>2013-07-02T14:46:43Z</time>
      </trkpt>
      <trkpt lat="45.53812" lon="2.82079">
        <ele>1448.2</ele>
        <time>2013-07-02T14:46:49Z</time>
      </trkpt>
      <trkpt lat="45.53817" lon="2.82077">
        <ele>1446.2</ele>
        <time>2013-07-02T14:47:06Z</time>
      </trkpt>
      <trkpt lat="45.53822" lon="2.82076">
        <ele>1445.4</ele>
        <time>2013-07-02T14:47:12Z</time>
      </trkpt>
      <trkpt lat="45.53828" lon="2.82074">
        <ele>1444.4</ele>
        <time>2013-07-02T14:47:19Z</time>
      </trkpt>
      <trkpt lat="45.53832" lon="2.82072">
        <ele>1444.1</ele>
        <time>2013-07-02T14:47:25Z</time>
      </trkpt>
      <trkpt lat="45.53837" lon="2.82072">
        <ele>1443.2</ele>
        <time>2013-07-02T14:47:32Z</time>
      </trkpt>
      <trkpt lat="45.53842" lon="2.8207">
        <ele>1441.9</ele>
        <time>2013-07-02T14:47:41Z</time>
      </trkpt>
      <trkpt lat="45.53846" lon="2.82066">
        <ele>1440.6</ele>
        <time>2013-07-02T14:47:48Z</time>
      </trkpt>
      <trkpt lat="45.53851" lon="2.82063">
        <ele>1439.6</ele>
        <time>2013-07-02T14:47:55Z</time>
      </trkpt>
      <trkpt lat="45.53854" lon="2.82058">
        <ele>1438.4</ele>
        <time>2013-07-02T14:48:02Z</time>
      </trkpt>
      <trkpt lat="45.53859" lon="2.82059">
        <ele>1436.6</ele>
        <time>2013-07-02T14:48:11Z</time>
      </trkpt>
      <trkpt lat="45.53864" lon="2.82062">
        <ele>1434.2</ele>
        <time>2013-07-02T14:48:21Z</time>
      </trkpt>
      <trkpt lat="45.53869" lon="2.82061">
        <ele>1433.2</ele>
        <time>2013-07-02T14:48:26Z</time>
      </trkpt>
      <trkpt lat="45.53873" lon="2.82059">
        <ele>1431.7</ele>
        <time>2013-07-02T14:48:32Z</time>
      </trkpt>
      <trkpt lat="45.53877" lon="2.82055">
        <ele>1429.1</ele>
        <time>2013-07-02T14:48:44Z</time>
      </trkpt>
      <trkpt lat="45.53881" lon="2.82051">
        <ele>1427.3</ele>
        <time>2013-07-02T14:48:52Z</time>
      </trkpt>
      <trkpt lat="45.53885" lon="2.82047">
        <ele>1426.3</ele>
        <time>2013-07-02T14:48:59Z</time>
      </trkpt>
      <trkpt lat="45.53888" lon="2.82042">
        <ele>1425.2</ele>
        <time>2013-07-02T14:49:07Z</time>
      </trkpt>
      <trkpt lat="45.53892" lon="2.82038">
        <ele>1424.5</ele>
        <time>2013-07-02T14:49:13Z</time>
      </trkpt>
      <trkpt lat="45.53896" lon="2.82038">
        <ele>1423.9</ele>
        <time>2013-07-02T14:49:21Z</time>
      </trkpt>
      <trkpt lat="45.53901" lon="2.82037">
        <ele>1423.6</ele>
        <time>2013-07-02T14:49:27Z</time>
      </trkpt>
      <trkpt lat="45.53906" lon="2.82036">
        <ele>1422.8</ele>
        <time>2013-07-02T14:49:33Z</time>
      </trkpt>
      <trkpt lat="45.53911" lon="2.82035">
        <ele>1421.5</ele>
        <time>2013-07-02T14:49:41Z</time>
      </trkpt>
      <trkpt lat="45.53915" lon="2.82031">
        <ele>1420.6</ele>
        <time>2013-07-02T14:49:46Z</time>
      </trkpt>
      <trkpt lat="45.53919" lon="2.82025">
        <ele>1419.2</ele>
        <time>2013-07-02T14:49:52Z</time>
      </trkpt>
      <trkpt lat="45.53923" lon="2.8202">
        <ele>1418.3</ele>
        <time>2013-07-02T14:49:58Z</time>
      </trkpt>
      <trkpt lat="45.53926" lon="2.82016">
        <ele>1416.3</ele>
        <time>2013-07-02T14:50:06Z</time>
      </trkpt>
      <trkpt lat="45.53931" lon="2.82015">
        <ele>1414.4</ele>
        <time>2013-07-02T14:50:15Z</time>
      </trkpt>
      <trkpt lat="45.53936" lon="2.82012">
        <ele>1413.6</ele>
        <time>2013-07-02T14:50:21Z</time>
      </trkpt>
      <trkpt lat="45.53941" lon="2.82012">
        <ele>1412.5</ele>
        <time>2013-07-02T14:50:29Z</time>
      </trkpt>
      <trkpt lat="45.53945" lon="2.8201">
        <ele>1411.7</ele>
        <time>2013-07-02T14:50:36Z</time>
      </trkpt>
      <trkpt lat="45.5395" lon="2.82007">
        <ele>1410.5</ele>
        <time>2013-07-02T14:50:45Z</time>
      </trkpt>
      <trkpt lat="45.53953" lon="2.82002">
        <ele>1409.8</ele>
        <time>2013-07-02T14:50:51Z</time>
      </trkpt>
      <trkpt lat="45.53956" lon="2.81998">
        <ele>1409</ele>
        <time>2013-07-02T14:50:57Z</time>
      </trkpt>
      <trkpt lat="45.53959" lon="2.81991">
        <ele>1408.3</ele>
        <time>2013-07-02T14:51:05Z</time>
      </trkpt>
      <trkpt lat="45.53962" lon="2.81986">
        <ele>1407.5</ele>
        <time>2013-07-02T14:51:12Z</time>
      </trkpt>
      <trkpt lat="45.53965" lon="2.8198">
        <ele>1406.1</ele>
        <time>2013-07-02T14:51:19Z</time>
      </trkpt>
      <trkpt lat="45.53969" lon="2.81977">
        <ele>1406.3</ele>
        <time>2013-07-02T14:51:29Z</time>
      </trkpt>
      <trkpt lat="45.5397" lon="2.8197">
        <ele>1404.7</ele>
        <time>2013-07-02T14:51:43Z</time>
      </trkpt>
      <trkpt lat="45.53969" lon="2.81962">
        <ele>1403.3</ele>
        <time>2013-07-02T14:51:53Z</time>
      </trkpt>
      <trkpt lat="45.53967" lon="2.81955">
        <ele>1400.3</ele>
        <time>2013-07-02T14:52:11Z</time>
      </trkpt>
      <trkpt lat="45.53967" lon="2.81948">
        <ele>1398.8</ele>
        <time>2013-07-02T14:52:18Z</time>
      </trkpt>
      <trkpt lat="45.53964" lon="2.81943">
        <ele>1398.1</ele>
        <time>2013-07-02T14:52:23Z</time>
      </trkpt>
      <trkpt lat="45.5396" lon="2.81939">
        <ele>1397.2</ele>
        <time>2013-07-02T14:52:28Z</time>
      </trkpt>
      <trkpt lat="45.53956" lon="2.81933">
        <ele>1395.2</ele>
        <time>2013-07-02T14:52:37Z</time>
      </trkpt>
      <trkpt lat="45.53951" lon="2.81928">
        <ele>1394.4</ele>
        <time>2013-07-02T14:52:41Z</time>
      </trkpt>
      <trkpt lat="45.53947" lon="2.81924">
        <ele>1393.6</ele>
        <time>2013-07-02T14:52:45Z</time>
      </trkpt>
      <trkpt lat="45.53943" lon="2.81922">
        <ele>1392.6</ele>
        <time>2013-07-02T14:52:50Z</time>
      </trkpt>
      <trkpt lat="45.53939" lon="2.81918">
        <ele>1391</ele>
        <time>2013-07-02T14:52:57Z</time>
      </trkpt>
      <trkpt lat="45.53935" lon="2.81914">
        <ele>1389.9</ele>
        <time>2013-07-02T14:53:02Z</time>
      </trkpt>
      <trkpt lat="45.53931" lon="2.8191">
        <ele>1387.8</ele>
        <time>2013-07-02T14:53:08Z</time>
      </trkpt>
      <trkpt lat="45.53926" lon="2.81907">
        <ele>1386.7</ele>
        <time>2013-07-02T14:53:13Z</time>
      </trkpt>
      <trkpt lat="45.5392" lon="2.81902">
        <ele>1384.4</ele>
        <time>2013-07-02T14:53:18Z</time>
      </trkpt>
      <trkpt lat="45.53915" lon="2.81899">
        <ele>1381.8</ele>
        <time>2013-07-02T14:53:26Z</time>
      </trkpt>
      <trkpt lat="45.53911" lon="2.81894">
        <ele>1378.9</ele>
        <time>2013-07-02T14:53:36Z</time>
      </trkpt>
      <trkpt lat="45.53911" lon="2.81887">
        <ele>1375.9</ele>
        <time>2013-07-02T14:53:49Z</time>
      </trkpt>
      <trkpt lat="45.53912" lon="2.8188">
        <ele>1373.5</ele>
        <time>2013-07-02T14:54:03Z</time>
      </trkpt>
      <trkpt lat="45.53916" lon="2.81876">
        <ele>1372.3</ele>
        <time>2013-07-02T14:54:10Z</time>
      </trkpt>
      <trkpt lat="45.53916" lon="2.8187">
        <ele>1371.2</ele>
        <time>2013-07-02T14:54:17Z</time>
      </trkpt>
      <trkpt lat="45.53917" lon="2.81862">
        <ele>1368.7</ele>
        <time>2013-07-02T14:54:37Z</time>
      </trkpt>
      <trkpt lat="45.53919" lon="2.81856">
        <ele>1368.3</ele>
        <time>2013-07-02T14:54:43Z</time>
      </trkpt>
      <trkpt lat="45.53921" lon="2.81849">
        <ele>1367.6</ele>
        <time>2013-07-02T14:54:50Z</time>
      </trkpt>
      <trkpt lat="45.53922" lon="2.81842">
        <ele>1366.9</ele>
        <time>2013-07-02T14:54:55Z</time>
      </trkpt>
      <trkpt lat="45.53925" lon="2.81837">
        <ele>1366</ele>
        <time>2013-07-02T14:55:01Z</time>
      </trkpt>
      <trkpt lat="45.53927" lon="2.81831">
        <ele>1365.7</ele>
        <time>2013-07-02T14:55:07Z</time>
      </trkpt>
      <trkpt lat="45.5393" lon="2.81824">
        <ele>1365.6</ele>
        <time>2013-07-02T14:55:13Z</time>
      </trkpt>
      <trkpt lat="45.53933" lon="2.81819">
        <ele>1365.4</ele>
        <time>2013-07-02T14:55:18Z</time>
      </trkpt>
      <trkpt lat="45.53937" lon="2.81815">
        <ele>1365.2</ele>
        <time>2013-07-02T14:55:23Z</time>
      </trkpt>
      <trkpt lat="45.5394" lon="2.81809">
        <ele>1365</ele>
        <time>2013-07-02T14:55:27Z</time>
      </trkpt>
      <trkpt lat="45.53945" lon="2.81807">
        <ele>1365</ele>
        <time>2013-07-02T14:55:32Z</time>
      </trkpt>
      <trkpt lat="45.5395" lon="2.81805">
        <ele>1364.7</ele>
        <time>2013-07-02T14:55:38Z</time>
      </trkpt>
      <trkpt lat="45.53955" lon="2.81802">
        <ele>1363.7</ele>
        <time>2013-07-02T14:55:44Z</time>
      </trkpt>
      <trkpt lat="45.53958" lon="2.81798">
        <ele>1362.3</ele>
        <time>2013-07-02T14:55:51Z</time>
      </trkpt>
      <trkpt lat="45.53961" lon="2.81792">
        <ele>1361.2</ele>
        <time>2013-07-02T14:55:57Z</time>
      </trkpt>
      <trkpt lat="45.53965" lon="2.81787">
        <ele>1359.4</ele>
        <time>2013-07-02T14:56:03Z</time>
      </trkpt>
      <trkpt lat="45.53969" lon="2.81785">
        <ele>1357.6</ele>
        <time>2013-07-02T14:56:09Z</time>
      </trkpt>
      <trkpt lat="45.53974" lon="2.81781">
        <ele>1355.9</ele>
        <time>2013-07-02T14:56:15Z</time>
      </trkpt>
      <trkpt lat="45.53979" lon="2.81777">
        <ele>1354.6</ele>
        <time>2013-07-02T14:56:20Z</time>
      </trkpt>
      <trkpt lat="45.53983" lon="2.81775">
        <ele>1353.5</ele>
        <time>2013-07-02T14:56:24Z</time>
      </trkpt>
      <trkpt lat="45.53988" lon="2.81774">
        <ele>1352.4</ele>
        <time>2013-07-02T14:56:28Z</time>
      </trkpt>
      <trkpt lat="45.53993" lon="2.81771">
        <ele>1351.2</ele>
        <time>2013-07-02T14:56:33Z</time>
      </trkpt>
      <trkpt lat="45.53998" lon="2.81769">
        <ele>1350.4</ele>
        <time>2013-07-02T14:56:39Z</time>
      </trkpt>
      <trkpt lat="45.54003" lon="2.8177">
        <ele>1349.4</ele>
        <time>2013-07-02T14:56:45Z</time>
      </trkpt>
      <trkpt lat="45.54008" lon="2.81769">
        <ele>1348.3</ele>
        <time>2013-07-02T14:56:50Z</time>
      </trkpt>
      <trkpt lat="45.54012" lon="2.81768">
        <ele>1346.6</ele>
        <time>2013-07-02T14:56:55Z</time>
      </trkpt>
      <trkpt lat="45.54018" lon="2.81767">
        <ele>1344.9</ele>
        <time>2013-07-02T14:57:01Z</time>
      </trkpt>
      <trkpt lat="45.54023" lon="2.81765">
        <ele>1344.1</ele>
        <time>2013-07-02T14:57:06Z</time>
      </trkpt>
      <trkpt lat="45.54027" lon="2.8176">
        <ele>1343.3</ele>
        <time>2013-07-02T14:57:11Z</time>
      </trkpt>
      <trkpt lat="45.54032" lon="2.81758">
        <ele>1342.7</ele>
        <time>2013-07-02T14:57:16Z</time>
      </trkpt>
      <trkpt lat="45.54037" lon="2.81756">
        <ele>1342.1</ele>
        <time>2013-07-02T14:57:21Z</time>
      </trkpt>
      <trkpt lat="45.54041" lon="2.81752">
        <ele>1341.4</ele>
        <time>2013-07-02T14:57:27Z</time>
      </trkpt>
      <trkpt lat="45.54046" lon="2.81749">
        <ele>1340.8</ele>
        <time>2013-07-02T14:57:32Z</time>
      </trkpt>
      <trkpt lat="45.5405" lon="2.81744">
        <ele>1340.5</ele>
        <time>2013-07-02T14:57:37Z</time>
      </trkpt>
      <trkpt lat="45.54055" lon="2.81742">
        <ele>1340.2</ele>
        <time>2013-07-02T14:57:42Z</time>
      </trkpt>
      <trkpt lat="45.5406" lon="2.8174">
        <ele>1339.7</ele>
        <time>2013-07-02T14:57:46Z</time>
      </trkpt>
      <trkpt lat="45.54065" lon="2.81739">
        <ele>1339.1</ele>
        <time>2013-07-02T14:57:51Z</time>
      </trkpt>
      <trkpt lat="45.54069" lon="2.81736">
        <ele>1338.4</ele>
        <time>2013-07-02T14:57:55Z</time>
      </trkpt>
      <trkpt lat="45.54074" lon="2.81734">
        <ele>1337.6</ele>
        <time>2013-07-02T14:57:59Z</time>
      </trkpt>
      <trkpt lat="45.54079" lon="2.81733">
        <ele>1336.9</ele>
        <time>2013-07-02T14:58:03Z</time>
      </trkpt>
      <trkpt lat="45.54084" lon="2.81731">
        <ele>1336</ele>
        <time>2013-07-02T14:58:07Z</time>
      </trkpt>
      <trkpt lat="45.54089" lon="2.8173">
        <ele>1334.8</ele>
        <time>2013-07-02T14:58:13Z</time>
      </trkpt>
      <trkpt lat="45.54093" lon="2.81729">
        <ele>1333.8</ele>
        <time>2013-07-02T14:58:18Z</time>
      </trkpt>
      <trkpt lat="45.54098" lon="2.81729">
        <ele>1333.2</ele>
        <time>2013-07-02T14:58:22Z</time>
      </trkpt>
      <trkpt lat="45.54103" lon="2.81728">
        <ele>1332.2</ele>
        <time>2013-07-02T14:58:28Z</time>
      </trkpt>
      <trkpt lat="45.54108" lon="2.81724">
        <ele>1331.7</ele>
        <time>2013-07-02T14:58:33Z</time>
      </trkpt>
      <trkpt lat="45.54112" lon="2.81722">
        <ele>1331.5</ele>
        <time>2013-07-02T14:58:37Z</time>
      </trkpt>
      <trkpt lat="45.54117" lon="2.8172">
        <ele>1331.2</ele>
        <time>2013-07-02T14:58:41Z</time>
      </trkpt>
      <trkpt lat="45.54121" lon="2.81721">
        <ele>1330.6</ele>
        <time>2013-07-02T14:58:46Z</time>
      </trkpt>
      <trkpt lat="45.54125" lon="2.81726">
        <ele>1328.6</ele>
        <time>2013-07-02T14:58:54Z</time>
      </trkpt>
      <trkpt lat="45.54129" lon="2.8173">
        <ele>1327.3</ele>
        <time>2013-07-02T14:59:02Z</time>
      </trkpt>
      <trkpt lat="45.54128" lon="2.81737">
        <ele>1326.5</ele>
        <time>2013-07-02T14:59:13Z</time>
      </trkpt>
      <trkpt lat="45.54127" lon="2.81745">
        <ele>1326.3</ele>
        <time>2013-07-02T14:59:19Z</time>
      </trkpt>
      <trkpt lat="45.54127" lon="2.81752">
        <ele>1326.4</ele>
        <time>2013-07-02T14:59:25Z</time>
      </trkpt>
      <trkpt lat="45.54128" lon="2.8176">
        <ele>1326.2</ele>
        <time>2013-07-02T14:59:30Z</time>
      </trkpt>
      <trkpt lat="45.5413" lon="2.81769">
        <ele>1326.3</ele>
        <time>2013-07-02T14:59:35Z</time>
      </trkpt>
      <trkpt lat="45.54132" lon="2.81776">
        <ele>1326.4</ele>
        <time>2013-07-02T14:59:39Z</time>
      </trkpt>
      <trkpt lat="45.54132" lon="2.81784">
        <ele>1326.6</ele>
        <time>2013-07-02T14:59:43Z</time>
      </trkpt>
      <trkpt lat="45.54131" lon="2.81791">
        <ele>1326.6</ele>
        <time>2013-07-02T14:59:47Z</time>
      </trkpt>
      <trkpt lat="45.54132" lon="2.818">
        <ele>1326.7</ele>
        <time>2013-07-02T14:59:51Z</time>
      </trkpt>
      <trkpt lat="45.54133" lon="2.81806">
        <ele>1326.9</ele>
        <time>2013-07-02T14:59:54Z</time>
      </trkpt>
      <trkpt lat="45.54137" lon="2.81811">
        <ele>1327</ele>
        <time>2013-07-02T14:59:58Z</time>
      </trkpt>
      <trkpt lat="45.54142" lon="2.81815">
        <ele>1327.3</ele>
        <time>2013-07-02T15:00:02Z</time>
      </trkpt>
      <trkpt lat="45.54147" lon="2.81818">
        <ele>1327.6</ele>
        <time>2013-07-02T15:00:06Z</time>
      </trkpt>
      <trkpt lat="45.54152" lon="2.8182">
        <ele>1327.7</ele>
        <time>2013-07-02T15:00:10Z</time>
      </trkpt>
      <trkpt lat="45.54157" lon="2.81821">
        <ele>1327.9</ele>
        <time>2013-07-02T15:00:14Z</time>
      </trkpt>
      <trkpt lat="45.54162" lon="2.8182">
        <ele>1327.7</ele>
        <time>2013-07-02T15:00:18Z</time>
      </trkpt>
      <trkpt lat="45.54167" lon="2.81819">
        <ele>1327.7</ele>
        <time>2013-07-02T15:00:22Z</time>
      </trkpt>
      <trkpt lat="45.54172" lon="2.81819">
        <ele>1327.8</ele>
        <time>2013-07-02T15:00:26Z</time>
      </trkpt>
      <trkpt lat="45.54178" lon="2.81822">
        <ele>1327.9</ele>
        <time>2013-07-02T15:00:30Z</time>
      </trkpt>
      <trkpt lat="45.54182" lon="2.81823">
        <ele>1327.8</ele>
        <time>2013-07-02T15:00:34Z</time>
      </trkpt>
      <trkpt lat="45.54187" lon="2.81821">
        <ele>1327.7</ele>
        <time>2013-07-02T15:00:38Z</time>
      </trkpt>
      <trkpt lat="45.54192" lon="2.81819">
        <ele>1327.8</ele>
        <time>2013-07-02T15:00:42Z</time>
      </trkpt>
      <trkpt lat="45.54196" lon="2.81817">
        <ele>1327.9</ele>
        <time>2013-07-02T15:00:46Z</time>
      </trkpt>
      <trkpt lat="45.54201" lon="2.81815">
        <ele>1327.8</ele>
        <time>2013-07-02T15:00:50Z</time>
      </trkpt>
      <trkpt lat="45.54205" lon="2.81811">
        <ele>1327.6</ele>
        <time>2013-07-02T15:00:55Z</time>
      </trkpt>
      <trkpt lat="45.54209" lon="2.81807">
        <ele>1327.6</ele>
        <time>2013-07-02T15:01:00Z</time>
      </trkpt>
      <trkpt lat="45.54214" lon="2.81803">
        <ele>1327.7</ele>
        <time>2013-07-02T15:01:05Z</time>
      </trkpt>
      <trkpt lat="45.54219" lon="2.81801">
        <ele>1327.9</ele>
        <time>2013-07-02T15:01:11Z</time>
      </trkpt>
      <trkpt lat="45.54223" lon="2.81799">
        <ele>1327.8</ele>
        <time>2013-07-02T15:01:22Z</time>
      </trkpt>
      <trkpt lat="45.54228" lon="2.81796">
        <ele>1324.2</ele>
        <time>2013-07-02T15:02:01Z</time>
      </trkpt>
      <trkpt lat="45.54234" lon="2.81797">
        <ele>1323.4</ele>
        <time>2013-07-02T15:02:06Z</time>
      </trkpt>
      <trkpt lat="45.54238" lon="2.81797">
        <ele>1325</ele>
        <time>2013-07-02T15:04:04Z</time>
      </trkpt>
      <trkpt lat="45.54243" lon="2.81796">
        <ele>1325.8</ele>
        <time>2013-07-02T15:04:10Z</time>
      </trkpt>
      <trkpt lat="45.54248" lon="2.81795">
        <ele>1326.4</ele>
        <time>2013-07-02T15:04:16Z</time>
      </trkpt>
      <trkpt lat="45.54253" lon="2.81792">
        <ele>1326</ele>
        <time>2013-07-02T15:04:48Z</time>
      </trkpt>
      <trkpt lat="45.54256" lon="2.81788">
        <ele>1325.6</ele>
        <time>2013-07-02T15:05:18Z</time>
      </trkpt>
      <trkpt lat="45.5426" lon="2.81784">
        <ele>1325.6</ele>
        <time>2013-07-02T15:05:26Z</time>
      </trkpt>
    </trkseg>
  </trk>
</gpx>